Time,TemperatureF,DewpointF,PressureIn,WindDirection,WindDirectionDegrees,WindSpeedMPH,WindSpeedGustMPH,Humidity,HourlyPrecipIn,Conditions,Clouds,dailyrainin,SoftwareType,DateUTC
2013-04-21 00:00:00,29.7,18.2,0.00,South,169,0.0,0.0,62,0.00,,---,0.00,VWS V14.00,2013-04-21 06:00:00,
2013-04-21 00:01:00,29.5,18.1,0.00,South,169,0.0,0.0,62,0.00,,---,0.00,VWS V14.00,2013-04-21 06:01:00,
2013-04-21 00:04:00,29.5,18.5,0.00,SSE,168,0.0,0.0,63,0.00,,---,0.00,VWS V14.00,2013-04-21 06:04:00,
2013-04-21 00:05:00,29.5,18.5,0.00,South,169,0.0,0.0,63,0.00,,---,0.00,VWS V14.00,2013-04-21 06:05:00,
2013-04-21 00:06:00,29.5,18.5,0.00,SSE,168,0.0,0.0,63,0.00,,---,0.00,VWS V14.00,2013-04-21 06:06:00,
2013-04-21 00:09:00,29.5,18.5,0.00,SSE,167,0.0,0.0,63,0.00,,---,0.00,VWS V14.00,2013-04-21 06:09:00,
2013-04-21 00:10:00,29.5,18.1,0.00,SSE,163,0.0,0.0,62,0.00,,---,0.00,VWS V14.00,2013-04-21 06:10:00,
2013-04-21 00:11:00,29.5,18.1,0.00,SSE,163,0.0,0.0,62,0.00,,---,0.00,VWS V14.00,2013-04-21 06:11:00,
2013-04-21 00:14:00,29.5,18.1,0.00,SSE,163,0.0,0.0,62,0.00,,---,0.00,VWS V14.00,2013-04-21 06:14:00,
2013-04-21 00:15:00,29.3,17.9,0.00,SE,139,2.7,2.7,62,0.00,,---,0.00,VWS V14.00,2013-04-21 06:15:00,
2013-04-21 00:16:00,29.3,17.9,0.00,SE,131,0.0,2.7,62,0.00,,---,0.00,VWS V14.00,2013-04-21 06:16:00,
2013-04-21 00:19:00,29.3,17.9,0.00,ESE,109,4.0,5.8,62,0.00,,---,0.00,VWS V14.00,2013-04-21 06:19:00,
2013-04-21 00:20:00,29.1,17.7,0.00,ESE,108,3.1,3.1,62,0.00,,---,0.00,VWS V14.00,2013-04-21 06:20:00,
2013-04-21 00:21:00,29.1,17.7,0.00,ESE,110,2.7,3.1,62,0.00,,---,0.00,VWS V14.00,2013-04-21 06:21:00,
2013-04-21 00:24:00,29.1,17.7,0.00,ESE,116,0.0,0.0,62,0.00,,---,0.00,VWS V14.00,2013-04-21 06:24:00,
2013-04-21 00:25:00,29.1,17.7,0.00,SW,221,0.0,0.0,62,0.00,,---,0.00,VWS V14.00,2013-04-21 06:25:00,
2013-04-21 00:26:00,29.1,17.7,0.00,SW,225,0.0,0.0,62,0.00,,---,0.00,VWS V14.00,2013-04-21 06:26:00,
2013-04-21 00:29:00,28.9,17.2,0.00,West,265,0.0,0.0,61,0.00,,---,0.00,VWS V14.00,2013-04-21 06:29:00,
2013-04-21 00:30:00,28.8,17.0,0.00,West,273,0.0,0.0,61,0.00,,---,0.00,VWS V14.00,2013-04-21 06:30:00,
2013-04-21 00:31:00,28.8,17.0,0.00,West,265,0.0,0.0,61,0.00,,---,0.00,VWS V14.00,2013-04-21 06:31:00,
2013-04-21 00:34:00,28.8,17.0,0.00,West,274,0.0,0.0,61,0.00,,---,0.00,VWS V14.00,2013-04-21 06:34:00,
2013-04-21 00:35:00,28.8,17.0,0.00,West,274,0.0,0.0,61,0.00,,---,0.00,VWS V14.00,2013-04-21 06:35:00,
2013-04-21 00:36:00,28.8,17.0,0.00,West,274,0.0,0.0,61,0.00,,---,0.00,VWS V14.00,2013-04-21 06:36:00,
2013-04-21 00:39:00,28.8,17.0,0.00,West,271,0.0,0.0,61,0.00,,---,0.00,VWS V14.00,2013-04-21 06:39:00,
2013-04-21 00:40:00,28.8,16.6,0.00,West,259,0.0,0.0,60,0.00,,---,0.00,VWS V14.00,2013-04-21 06:40:00,
2013-04-21 00:41:00,28.6,16.5,0.00,West,259,0.0,0.0,60,0.00,,---,0.00,VWS V14.00,2013-04-21 06:41:00,
2013-04-21 00:44:00,28.6,16.5,0.00,West,259,0.0,0.0,60,0.00,,---,0.00,VWS V14.00,2013-04-21 06:44:00,
2013-04-21 00:45:00,28.6,16.5,0.00,West,259,0.0,0.0,60,0.00,,---,0.00,VWS V14.00,2013-04-21 06:45:00,
2013-04-21 00:46:00,28.6,16.5,0.00,West,259,0.0,0.0,60,0.00,,---,0.00,VWS V14.00,2013-04-21 06:46:00,
2013-04-21 00:49:00,28.6,16.5,0.00,West,259,0.0,0.0,60,0.00,,---,0.00,VWS V14.00,2013-04-21 06:49:00,
2013-04-21 00:50:00,28.6,16.5,0.00,West,259,0.0,0.0,60,0.00,,---,0.00,VWS V14.00,2013-04-21 06:50:00,
2013-04-21 00:51:00,28.6,16.5,0.00,West,259,0.0,0.0,60,0.00,,---,0.00,VWS V14.00,2013-04-21 06:51:00,
2013-04-21 00:54:00,28.4,16.3,0.00,West,259,0.0,0.0,60,0.00,,---,0.00,VWS V14.00,2013-04-21 06:54:00,
2013-04-21 00:55:00,28.4,16.3,0.00,West,259,0.0,0.0,60,0.00,,---,0.00,VWS V14.00,2013-04-21 06:55:00,
2013-04-21 00:56:00,28.4,16.3,0.00,West,259,0.0,0.0,60,0.00,,---,0.00,VWS V14.00,2013-04-21 06:56:00,
2013-04-21 00:59:00,28.4,16.3,0.00,SW,222,0.0,0.0,60,0.00,,---,0.00,VWS V14.00,2013-04-21 06:59:00,
2013-04-21 01:00:00,28.4,16.3,0.00,ESE,111,3.6,3.6,60,0.00,,---,0.00,VWS V14.00,2013-04-21 07:00:00,
2013-04-21 01:01:00,28.4,16.3,0.00,SE,135,0.0,0.0,60,0.00,,---,0.00,VWS V14.00,2013-04-21 07:01:00,
2013-04-21 01:04:00,28.2,16.1,0.00,ESE,110,2.2,2.2,60,0.00,,---,0.00,VWS V14.00,2013-04-21 07:04:00,
2013-04-21 01:05:00,28.2,16.1,0.00,ESE,109,0.0,2.2,60,0.00,,---,0.00,VWS V14.00,2013-04-21 07:05:00,
2013-04-21 01:06:00,28.2,16.1,0.00,South,191,0.0,0.0,60,0.00,,---,0.00,VWS V14.00,2013-04-21 07:06:00,
2013-04-21 01:07:00,28.0,16.0,0.00,South,186,0.0,0.0,60,0.00,,---,0.00,VWS V14.00,2013-04-21 07:07:00,
2013-04-21 01:09:00,28.0,16.0,0.00,South,190,0.0,0.0,60,0.00,,---,0.00,VWS V14.00,2013-04-21 07:09:00,
2013-04-21 01:10:00,28.0,16.0,0.00,South,191,0.0,0.0,60,0.00,,---,0.00,VWS V14.00,2013-04-21 07:10:00,
2013-04-21 01:11:00,28.0,16.0,0.00,South,191,0.0,0.0,60,0.00,,---,0.00,VWS V14.00,2013-04-21 07:11:00,
2013-04-21 01:12:00,28.0,16.0,0.00,South,191,0.0,0.0,60,0.00,,---,0.00,VWS V14.00,2013-04-21 07:12:00,
2013-04-21 01:14:00,28.0,16.0,0.00,South,191,0.0,0.0,60,0.00,,---,0.00,VWS V14.00,2013-04-21 07:14:00,
2013-04-21 01:15:00,27.9,15.8,0.00,South,189,0.0,0.0,60,0.00,,---,0.00,VWS V14.00,2013-04-21 07:15:00,
2013-04-21 01:17:00,27.9,15.8,0.00,South,191,0.0,0.0,60,0.00,,---,0.00,VWS V14.00,2013-04-21 07:17:00,
2013-04-21 01:19:00,27.9,15.8,0.00,South,181,0.0,0.0,60,0.00,,---,0.00,VWS V14.00,2013-04-21 07:19:00,
2013-04-21 01:20:00,27.9,15.8,0.00,SSE,153,0.0,0.0,60,0.00,,---,0.00,VWS V14.00,2013-04-21 07:20:00,
2013-04-21 01:22:00,27.9,15.8,0.00,SSE,153,0.0,0.0,60,0.00,,---,0.00,VWS V14.00,2013-04-21 07:22:00,
2013-04-21 01:24:00,27.9,15.8,0.00,SSE,153,0.0,0.0,60,0.00,,---,0.00,VWS V14.00,2013-04-21 07:24:00,
2013-04-21 01:25:00,27.9,15.8,0.00,SSE,153,0.0,0.0,60,0.00,,---,0.00,VWS V14.00,2013-04-21 07:25:00,
2013-04-21 01:27:00,27.9,15.8,0.00,SSE,153,0.0,0.0,60,0.00,,---,0.00,VWS V14.00,2013-04-21 07:27:00,
2013-04-21 01:30:00,27.9,15.8,0.00,SSE,153,0.0,0.0,60,0.00,,---,0.00,VWS V14.00,2013-04-21 07:30:00,
2013-04-21 01:31:00,27.7,15.6,0.00,SSE,153,0.0,0.0,60,0.00,,---,0.00,VWS V14.00,2013-04-21 07:31:00,
2013-04-21 01:32:00,27.7,15.6,0.00,SSE,149,0.0,0.0,60,0.00,,---,0.00,VWS V14.00,2013-04-21 07:32:00,
2013-04-21 01:35:00,27.7,16.0,0.00,SSE,153,0.0,0.0,61,0.00,,---,0.00,VWS V14.00,2013-04-21 07:35:00,
2013-04-21 01:36:00,27.7,15.6,0.00,ESE,119,0.0,2.7,60,0.00,,---,0.00,VWS V14.00,2013-04-21 07:36:00,
2013-04-21 01:37:00,27.7,15.6,0.00,ESE,119,0.0,0.0,60,0.00,,---,0.00,VWS V14.00,2013-04-21 07:37:00,
2013-04-21 01:40:00,27.5,15.4,0.00,SE,127,0.0,0.0,60,0.00,,---,0.00,VWS V14.00,2013-04-21 07:40:00,
2013-04-21 01:41:00,27.5,15.4,0.00,SW,223,0.0,0.0,60,0.00,,---,0.00,VWS V14.00,2013-04-21 07:41:00,
2013-04-21 01:42:00,27.5,15.4,0.00,SW,228,0.0,0.0,60,0.00,,---,0.00,VWS V14.00,2013-04-21 07:42:00,
2013-04-21 01:45:00,27.3,15.3,0.00,SW,229,0.0,0.0,60,0.00,,---,0.00,VWS V14.00,2013-04-21 07:45:00,
2013-04-21 01:46:00,27.3,15.3,0.00,SW,229,0.0,0.0,60,0.00,,---,0.00,VWS V14.00,2013-04-21 07:46:00,
2013-04-21 01:47:00,27.3,15.3,0.00,SW,229,0.0,0.0,60,0.00,,---,0.00,VWS V14.00,2013-04-21 07:47:00,
2013-04-21 01:50:00,27.3,15.3,0.00,SW,229,0.0,0.0,60,0.00,,---,0.00,VWS V14.00,2013-04-21 07:50:00,
2013-04-21 01:51:00,27.1,15.1,0.00,SW,229,0.0,0.0,60,0.00,,---,0.00,VWS V14.00,2013-04-21 07:51:00,
2013-04-21 01:52:00,27.1,15.1,0.00,SW,229,0.0,0.0,60,0.00,,---,0.00,VWS V14.00,2013-04-21 07:52:00,
2013-04-21 01:53:00,27.1,15.1,0.00,SW,229,0.0,0.0,60,0.00,,---,0.00,VWS V14.00,2013-04-21 07:53:00,
2013-04-21 01:55:00,27.1,15.1,0.00,SW,229,0.0,0.0,60,0.00,,---,0.00,VWS V14.00,2013-04-21 07:55:00,
2013-04-21 01:56:00,27.1,15.1,0.00,SW,229,0.0,0.0,60,0.00,,---,0.00,VWS V14.00,2013-04-21 07:56:00,
2013-04-21 01:57:00,27.1,15.1,0.00,SW,229,0.0,0.0,60,0.00,,---,0.00,VWS V14.00,2013-04-21 07:57:00,
2013-04-21 01:58:00,27.1,15.1,0.00,SW,227,0.0,0.0,60,0.00,,---,0.00,VWS V14.00,2013-04-21 07:58:00,
2013-04-21 02:00:00,27.0,14.9,0.00,SW,230,0.0,0.0,60,0.00,,---,0.00,VWS V14.00,2013-04-21 08:00:00,
2013-04-21 02:01:00,27.0,14.9,0.00,SW,222,0.0,0.0,60,0.00,,---,0.00,VWS V14.00,2013-04-21 08:01:00,
2013-04-21 02:02:00,27.0,14.9,0.00,SW,222,0.0,0.0,60,0.00,,---,0.00,VWS V14.00,2013-04-21 08:02:00,
2013-04-21 02:03:00,27.0,14.9,0.00,SW,230,0.0,0.0,60,0.00,,---,0.00,VWS V14.00,2013-04-21 08:03:00,
2013-04-21 02:05:00,27.0,14.9,0.00,SW,229,0.0,0.0,60,0.00,,---,0.00,VWS V14.00,2013-04-21 08:05:00,
2013-04-21 02:07:00,27.0,14.9,0.00,SW,230,0.0,0.0,60,0.00,,---,0.00,VWS V14.00,2013-04-21 08:07:00,
2013-04-21 02:08:00,27.0,14.9,0.00,SW,231,0.0,0.0,60,0.00,,---,0.00,VWS V14.00,2013-04-21 08:08:00,
2013-04-21 02:10:00,26.8,14.8,0.00,SW,227,0.0,0.0,60,0.00,,---,0.00,VWS V14.00,2013-04-21 08:10:00,
2013-04-21 02:12:00,26.8,14.8,0.00,SW,227,0.0,0.0,60,0.00,,---,0.00,VWS V14.00,2013-04-21 08:12:00,
2013-04-21 02:13:00,26.6,14.6,0.00,SW,228,0.0,0.0,60,0.00,,---,0.00,VWS V14.00,2013-04-21 08:13:00,
2013-04-21 02:15:00,26.6,14.6,0.00,SW,229,0.0,0.0,60,0.00,,---,0.00,VWS V14.00,2013-04-21 08:15:00,
2013-04-21 02:17:00,26.6,14.6,0.00,NW,312,0.0,0.0,60,0.00,,---,0.00,VWS V14.00,2013-04-21 08:17:00,
2013-04-21 02:18:00,26.6,14.6,0.00,NW,321,0.0,0.0,60,0.00,,---,0.00,VWS V14.00,2013-04-21 08:18:00,
2013-04-21 02:21:00,26.4,14.4,0.00,WSW,249,3.1,3.1,60,0.00,,---,0.00,VWS V14.00,2013-04-21 08:21:00,
2013-04-21 02:22:00,26.4,14.4,0.00,WSW,250,0.0,3.1,60,0.00,,---,0.00,VWS V14.00,2013-04-21 08:22:00,
2013-04-21 02:23:00,26.4,14.4,0.00,WSW,249,0.0,0.0,60,0.00,,---,0.00,VWS V14.00,2013-04-21 08:23:00,
2013-04-21 02:26:00,26.4,14.8,0.00,SW,219,0.0,0.0,61,0.00,,---,0.00,VWS V14.00,2013-04-21 08:26:00,
2013-04-21 02:27:00,26.2,14.6,0.00,SW,221,0.0,0.0,61,0.00,,---,0.00,VWS V14.00,2013-04-21 08:27:00,
2013-04-21 02:28:00,26.2,14.6,0.00,SW,221,0.0,0.0,61,0.00,,---,0.00,VWS V14.00,2013-04-21 08:28:00,
2013-04-21 02:31:00,26.2,14.3,0.00,SW,221,0.0,0.0,60,0.00,,---,0.00,VWS V14.00,2013-04-21 08:31:00,
2013-04-21 02:32:00,26.2,14.3,0.00,SW,222,0.0,0.0,60,0.00,,---,0.00,VWS V14.00,2013-04-21 08:32:00,
2013-04-21 02:33:00,26.2,14.3,0.00,SSW,209,0.0,0.0,60,0.00,,---,0.00,VWS V14.00,2013-04-21 08:33:00,
2013-04-21 02:36:00,26.2,14.3,0.00,WSW,238,0.0,0.0,60,0.00,,---,0.00,VWS V14.00,2013-04-21 08:36:00,
2013-04-21 02:37:00,26.1,14.1,0.00,SW,235,0.0,0.0,60,0.00,,---,0.00,VWS V14.00,2013-04-21 08:37:00,
2013-04-21 02:38:00,26.1,14.1,0.00,WSW,239,0.0,0.0,60,0.00,,---,0.00,VWS V14.00,2013-04-21 08:38:00,
2013-04-21 02:41:00,26.1,14.1,0.00,WSW,241,0.0,0.0,60,0.00,,---,0.00,VWS V14.00,2013-04-21 08:41:00,
2013-04-21 02:43:00,26.1,14.1,0.00,WSW,252,0.0,2.7,60,0.00,,---,0.00,VWS V14.00,2013-04-21 08:43:00,
2013-04-21 02:44:00,26.1,14.1,0.00,SSW,208,2.7,3.6,60,0.00,,---,0.00,VWS V14.00,2013-04-21 08:44:00,
2013-04-21 02:46:00,25.9,13.9,0.00,SW,230,0.0,0.0,60,0.00,,---,0.00,VWS V14.00,2013-04-21 08:46:00,
2013-04-21 02:48:00,25.9,13.9,0.00,SW,229,2.7,3.1,60,0.00,,---,0.00,VWS V14.00,2013-04-21 08:48:00,
2013-04-21 02:49:00,25.9,13.9,0.00,SW,229,0.0,2.7,60,0.00,,---,0.00,VWS V14.00,2013-04-21 08:49:00,
2013-04-21 02:51:00,25.9,13.9,0.00,SW,214,0.0,0.0,60,0.00,,---,0.00,VWS V14.00,2013-04-21 08:51:00,
2013-04-21 02:53:00,25.9,13.9,0.00,SW,223,0.0,2.2,60,0.00,,---,0.00,VWS V14.00,2013-04-21 08:53:00,
2013-04-21 02:54:00,25.9,13.9,0.00,SW,223,0.0,0.0,60,0.00,,---,0.00,VWS V14.00,2013-04-21 08:54:00,
2013-04-21 02:56:00,25.9,13.9,0.00,SSW,211,0.0,0.0,60,0.00,,---,0.00,VWS V14.00,2013-04-21 08:56:00,
2013-04-21 02:58:00,25.9,13.9,0.00,SSW,211,0.0,0.0,60,0.00,,---,0.00,VWS V14.00,2013-04-21 08:58:00,
2013-04-21 02:59:00,25.7,13.8,0.00,SSW,211,0.0,0.0,60,0.00,,---,0.00,VWS V14.00,2013-04-21 08:59:00,
2013-04-21 03:02:00,25.7,13.8,0.00,SSW,211,0.0,0.0,60,0.00,,---,0.00,VWS V14.00,2013-04-21 09:02:00,
2013-04-21 03:03:00,25.7,13.8,0.00,SSW,212,0.0,0.0,60,0.00,,---,0.00,VWS V14.00,2013-04-21 09:03:00,
2013-04-21 03:04:00,25.7,13.8,0.00,SSW,213,0.0,0.0,60,0.00,,---,0.00,VWS V14.00,2013-04-21 09:04:00,
2013-04-21 03:05:00,25.7,13.8,0.00,SW,214,0.0,0.0,60,0.00,,---,0.00,VWS V14.00,2013-04-21 09:05:00,
2013-04-21 03:07:00,25.7,13.8,0.00,SW,216,0.0,0.0,60,0.00,,---,0.00,VWS V14.00,2013-04-21 09:07:00,
2013-04-21 03:08:00,25.7,13.8,0.00,SW,216,0.0,0.0,60,0.00,,---,0.00,VWS V14.00,2013-04-21 09:08:00,
2013-04-21 03:09:00,25.7,13.8,0.00,SW,216,0.0,0.0,60,0.00,,---,0.00,VWS V14.00,2013-04-21 09:09:00,
2013-04-21 03:10:00,25.7,13.8,0.00,SW,216,0.0,0.0,60,0.00,,---,0.00,VWS V14.00,2013-04-21 09:10:00,
2013-04-21 03:12:00,25.5,13.6,0.00,SW,216,0.0,0.0,60,0.00,,---,0.00,VWS V14.00,2013-04-21 09:12:00,
2013-04-21 03:13:00,25.5,13.2,0.00,SW,216,0.0,0.0,59,0.00,,---,0.00,VWS V14.00,2013-04-21 09:13:00,
2013-04-21 03:14:00,25.5,13.2,0.00,SW,216,0.0,0.0,59,0.00,,---,0.00,VWS V14.00,2013-04-21 09:14:00,
2013-04-21 03:15:00,25.5,13.2,0.00,SW,216,0.0,0.0,59,0.00,,---,0.00,VWS V14.00,2013-04-21 09:15:00,
2013-04-21 03:17:00,25.5,13.2,0.00,SW,229,0.0,0.0,59,0.00,,---,0.00,VWS V14.00,2013-04-21 09:17:00,
2013-04-21 03:18:00,25.5,13.2,0.00,SW,229,0.0,0.0,59,0.00,,---,0.00,VWS V14.00,2013-04-21 09:18:00,
2013-04-21 03:19:00,25.5,13.2,0.00,SW,222,0.0,0.0,59,0.00,,---,0.00,VWS V14.00,2013-04-21 09:19:00,
2013-04-21 03:20:00,25.5,13.2,0.00,SW,229,0.0,0.0,59,0.00,,---,0.00,VWS V14.00,2013-04-21 09:20:00,
2013-04-21 03:22:00,25.3,13.0,0.00,SW,229,0.0,0.0,59,0.00,,---,0.00,VWS V14.00,2013-04-21 09:22:00,
2013-04-21 03:23:00,25.3,13.0,0.00,SW,229,0.0,0.0,59,0.00,,---,0.00,VWS V14.00,2013-04-21 09:23:00,
2013-04-21 03:24:00,25.3,13.0,0.00,SW,229,0.0,0.0,59,0.00,,---,0.00,VWS V14.00,2013-04-21 09:24:00,
2013-04-21 03:25:00,25.3,13.0,0.00,SW,229,0.0,0.0,59,0.00,,---,0.00,VWS V14.00,2013-04-21 09:25:00,
2013-04-21 03:27:00,25.3,13.0,0.00,SW,229,0.0,0.0,59,0.00,,---,0.00,VWS V14.00,2013-04-21 09:27:00,
2013-04-21 03:28:00,25.3,13.4,0.00,SW,229,0.0,0.0,60,0.00,,---,0.00,VWS V14.00,2013-04-21 09:28:00,
2013-04-21 03:29:00,25.3,13.4,0.00,SW,229,0.0,0.0,60,0.00,,---,0.00,VWS V14.00,2013-04-21 09:29:00,
2013-04-21 03:30:00,25.3,13.4,0.00,SW,227,0.0,0.0,60,0.00,,---,0.00,VWS V14.00,2013-04-21 09:30:00,
2013-04-21 03:32:00,25.3,13.4,0.00,SW,233,2.2,4.0,60,0.00,,---,0.00,VWS V14.00,2013-04-21 09:32:00,
2013-04-21 03:33:00,25.3,13.4,0.00,SW,230,0.0,0.0,60,0.00,,---,0.00,VWS V14.00,2013-04-21 09:33:00,
2013-04-21 03:34:00,25.3,13.4,0.00,SW,225,0.0,0.0,60,0.00,,---,0.00,VWS V14.00,2013-04-21 09:34:00,
2013-04-21 03:35:00,25.3,13.0,0.00,SW,231,0.0,0.0,59,0.00,,---,0.00,VWS V14.00,2013-04-21 09:35:00,
2013-04-21 03:37:00,25.2,13.2,0.00,SW,233,0.0,0.0,60,0.00,,---,0.00,VWS V14.00,2013-04-21 09:37:00,
2013-04-21 03:39:00,25.2,13.2,0.00,SW,228,0.0,0.0,60,0.00,,---,0.00,VWS V14.00,2013-04-21 09:39:00,
2013-04-21 03:40:00,25.2,13.2,0.00,SW,229,0.0,0.0,60,0.00,,---,0.00,VWS V14.00,2013-04-21 09:40:00,
2013-04-21 03:42:00,25.2,13.2,0.00,SW,233,0.0,0.0,60,0.00,,---,0.00,VWS V14.00,2013-04-21 09:42:00,
2013-04-21 03:44:00,25.2,13.2,0.00,SW,232,0.0,0.0,60,0.00,,---,0.00,VWS V14.00,2013-04-21 09:44:00,
2013-04-21 03:45:00,25.0,13.1,0.00,SW,233,0.0,0.0,60,0.00,,---,0.00,VWS V14.00,2013-04-21 09:45:00,
2013-04-21 03:47:00,25.0,13.1,0.00,WSW,240,0.0,0.0,60,0.00,,---,0.00,VWS V14.00,2013-04-21 09:47:00,
2013-04-21 03:49:00,25.0,13.1,0.00,SW,235,0.0,0.0,60,0.00,,---,0.00,VWS V14.00,2013-04-21 09:49:00,
2013-04-21 03:50:00,25.0,13.1,0.00,WSW,240,0.0,2.7,60,0.00,,---,0.00,VWS V14.00,2013-04-21 09:50:00,
2013-04-21 03:51:00,25.0,13.1,0.00,WSW,240,0.0,0.0,60,0.00,,---,0.00,VWS V14.00,2013-04-21 09:51:00,
2013-04-21 03:52:00,25.0,13.1,0.00,WSW,240,0.0,0.0,60,0.00,,---,0.00,VWS V14.00,2013-04-21 09:52:00,
2013-04-21 03:54:00,25.0,13.1,0.00,WSW,240,0.0,0.0,60,0.00,,---,0.00,VWS V14.00,2013-04-21 09:54:00,
2013-04-21 03:55:00,24.8,12.9,0.00,WSW,240,0.0,0.0,60,0.00,,---,0.00,VWS V14.00,2013-04-21 09:55:00,
2013-04-21 03:56:00,24.8,12.9,0.00,WSW,240,0.0,0.0,60,0.00,,---,0.00,VWS V14.00,2013-04-21 09:56:00,
2013-04-21 03:58:00,24.8,12.9,0.00,WSW,240,0.0,0.0,60,0.00,,---,0.00,VWS V14.00,2013-04-21 09:58:00,
2013-04-21 03:59:00,24.8,12.9,0.00,WSW,238,0.0,0.0,60,0.00,,---,0.00,VWS V14.00,2013-04-21 09:59:00,
2013-04-21 04:00:00,24.8,12.9,0.00,SE,130,2.7,3.1,60,0.00,,---,0.00,VWS V14.00,2013-04-21 10:00:00,
2013-04-21 04:01:00,24.8,12.9,0.00,SSE,150,0.0,3.1,60,0.00,,---,0.00,VWS V14.00,2013-04-21 10:01:00,
2013-04-21 04:03:00,24.8,12.9,0.00,South,187,0.0,0.0,60,0.00,,---,0.00,VWS V14.00,2013-04-21 10:03:00,
2013-04-21 04:04:00,24.8,12.9,0.00,SSE,151,2.2,5.4,60,0.00,,---,0.00,VWS V14.00,2013-04-21 10:04:00,
2013-04-21 04:05:00,24.8,12.9,0.00,ESE,104,0.0,3.1,60,0.00,,---,0.00,VWS V14.00,2013-04-21 10:05:00,
2013-04-21 04:06:00,24.8,12.9,0.00,ESE,104,0.0,3.1,60,0.00,,---,0.00,VWS V14.00,2013-04-21 10:06:00,
2013-04-21 04:08:00,24.6,12.7,0.00,ESE,104,0.0,0.0,60,0.00,,---,0.00,VWS V14.00,2013-04-21 10:08:00,
2013-04-21 04:09:00,24.6,12.7,0.00,ESE,104,0.0,0.0,60,0.00,,---,0.00,VWS V14.00,2013-04-21 10:09:00,
2013-04-21 04:10:00,24.6,12.7,0.00,ESE,104,0.0,0.0,60,0.00,,---,0.00,VWS V14.00,2013-04-21 10:10:00,
2013-04-21 04:11:00,24.6,12.7,0.00,ESE,110,0.0,0.0,60,0.00,,---,0.00,VWS V14.00,2013-04-21 10:11:00,
2013-04-21 04:13:00,24.6,12.7,0.00,West,275,2.2,2.2,60,0.00,,---,0.00,VWS V14.00,2013-04-21 10:13:00,
2013-04-21 04:14:00,24.6,12.7,0.00,West,262,2.2,3.1,60,0.00,,---,0.00,VWS V14.00,2013-04-21 10:14:00,
2013-04-21 04:15:00,24.6,12.7,0.00,West,262,0.0,3.1,60,0.00,,---,0.00,VWS V14.00,2013-04-21 10:15:00,
2013-04-21 04:16:00,24.6,12.7,0.00,West,262,0.0,0.0,60,0.00,,---,0.00,VWS V14.00,2013-04-21 10:16:00,
2013-04-21 04:18:00,24.4,12.6,0.00,West,259,0.0,0.0,60,0.00,,---,0.00,VWS V14.00,2013-04-21 10:18:00,
2013-04-21 04:20:00,24.4,12.6,0.00,WSW,240,0.0,0.0,60,0.00,,---,0.00,VWS V14.00,2013-04-21 10:20:00,
2013-04-21 04:21:00,24.4,12.6,0.00,WSW,245,0.0,2.7,60,0.00,,---,0.00,VWS V14.00,2013-04-21 10:21:00,
2013-04-21 04:23:00,24.4,12.6,0.00,WNW,303,3.6,3.6,60,0.00,,---,0.00,VWS V14.00,2013-04-21 10:23:00,
2013-04-21 04:25:00,24.4,12.6,0.00,WNW,298,0.0,3.1,60,0.00,,---,0.00,VWS V14.00,2013-04-21 10:25:00,
2013-04-21 04:26:00,24.4,12.6,0.00,WNW,299,0.0,0.0,60,0.00,,---,0.00,VWS V14.00,2013-04-21 10:26:00,
2013-04-21 04:28:00,24.4,12.6,0.00,WNW,299,0.0,0.0,60,0.00,,---,0.00,VWS V14.00,2013-04-21 10:28:00,
2013-04-21 04:30:00,24.4,12.6,0.00,WNW,299,0.0,0.0,60,0.00,,---,0.00,VWS V14.00,2013-04-21 10:30:00,
2013-04-21 04:31:00,24.4,12.6,0.00,WNW,298,0.0,0.0,60,0.00,,---,0.00,VWS V14.00,2013-04-21 10:31:00,
2013-04-21 04:33:00,24.3,12.4,0.00,WNW,298,0.0,0.0,60,0.00,,---,0.00,VWS V14.00,2013-04-21 10:33:00,
2013-04-21 04:35:00,24.3,12.4,0.00,WNW,298,0.0,0.0,60,0.00,,---,0.00,VWS V14.00,2013-04-21 10:35:00,
2013-04-21 04:36:00,24.3,12.4,0.00,WNW,298,0.0,0.0,60,0.00,,---,0.00,VWS V14.00,2013-04-21 10:36:00,
2013-04-21 04:38:00,24.3,12.4,0.00,WNW,298,0.0,0.0,60,0.00,,---,0.00,VWS V14.00,2013-04-21 10:38:00,
2013-04-21 04:40:00,24.3,12.4,0.00,WNW,299,0.0,0.0,60,0.00,,---,0.00,VWS V14.00,2013-04-21 10:40:00,
2013-04-21 04:41:00,24.3,12.4,0.00,WNW,299,0.0,0.0,60,0.00,,---,0.00,VWS V14.00,2013-04-21 10:41:00,
2013-04-21 04:42:00,24.3,12.4,0.00,WNW,299,0.0,0.0,60,0.00,,---,0.00,VWS V14.00,2013-04-21 10:42:00,
2013-04-21 04:43:00,24.3,12.4,0.00,WNW,299,0.0,0.0,60,0.00,,---,0.00,VWS V14.00,2013-04-21 10:43:00,
2013-04-21 04:45:00,24.3,12.4,0.00,WNW,295,0.0,0.0,60,0.00,,---,0.00,VWS V14.00,2013-04-21 10:45:00,
2013-04-21 04:46:00,24.3,12.4,0.00,WNW,295,0.0,0.0,60,0.00,,---,0.00,VWS V14.00,2013-04-21 10:46:00,
2013-04-21 04:47:00,24.1,12.2,0.00,WNW,303,0.0,0.0,60,0.00,,---,0.00,VWS V14.00,2013-04-21 10:47:00,
2013-04-21 04:48:00,24.1,12.2,0.00,NW,304,0.0,0.0,60,0.00,,---,0.00,VWS V14.00,2013-04-21 10:48:00,
2013-04-21 04:51:00,24.1,12.6,0.00,SSE,168,0.0,2.2,61,0.00,,---,0.00,VWS V14.00,2013-04-21 10:51:00,
2013-04-21 04:52:00,24.1,12.6,0.00,SSE,168,0.0,0.0,61,0.00,,---,0.00,VWS V14.00,2013-04-21 10:52:00,
2013-04-21 04:54:00,24.1,12.2,0.00,SW,230,0.0,0.0,60,0.00,,---,0.00,VWS V14.00,2013-04-21 10:54:00,
2013-04-21 04:56:00,24.1,12.2,0.00,WSW,243,0.0,0.0,60,0.00,,---,0.00,VWS V14.00,2013-04-21 10:56:00,
2013-04-21 04:57:00,24.1,12.2,0.00,WSW,243,0.0,0.0,60,0.00,,---,0.00,VWS V14.00,2013-04-21 10:57:00,
2013-04-21 04:59:00,24.1,12.2,0.00,WSW,239,0.0,0.0,60,0.00,,---,0.00,VWS V14.00,2013-04-21 10:59:00,
2013-04-21 05:01:00,23.9,12.1,0.00,WSW,243,2.7,2.7,60,0.00,,---,0.00,VWS V14.00,2013-04-21 11:01:00,
2013-04-21 05:02:00,23.9,12.4,0.00,SW,233,2.7,2.7,61,0.00,,---,0.00,VWS V14.00,2013-04-21 11:02:00,
2013-04-21 05:04:00,23.9,12.4,0.00,South,173,3.1,3.1,61,0.00,,---,0.00,VWS V14.00,2013-04-21 11:04:00,
2013-04-21 05:06:00,23.9,12.4,0.00,ESE,107,2.7,2.7,61,0.00,,---,0.00,VWS V14.00,2013-04-21 11:06:00,
2013-04-21 05:07:00,23.9,12.1,0.00,ESE,111,0.0,0.0,60,0.00,,---,0.00,VWS V14.00,2013-04-21 11:07:00,
2013-04-21 05:09:00,23.9,12.1,0.00,South,180,0.0,0.0,60,0.00,,---,0.00,VWS V14.00,2013-04-21 11:09:00,
2013-04-21 05:11:00,23.9,12.1,0.00,SW,223,0.0,0.0,60,0.00,,---,0.00,VWS V14.00,2013-04-21 11:11:00,
2013-04-21 05:12:00,23.9,12.1,0.00,WSW,255,0.0,0.0,60,0.00,,---,0.00,VWS V14.00,2013-04-21 11:12:00,
2013-04-21 05:14:00,23.9,12.1,0.00,WSW,255,0.0,0.0,60,0.00,,---,0.00,VWS V14.00,2013-04-21 11:14:00,
2013-04-21 05:16:00,23.9,11.7,0.00,WSW,254,0.0,0.0,59,0.00,,---,0.00,VWS V14.00,2013-04-21 11:16:00,
2013-04-21 05:17:00,23.9,11.7,0.00,WSW,254,0.0,0.0,59,0.00,,---,0.00,VWS V14.00,2013-04-21 11:17:00,
2013-04-21 05:19:00,23.9,11.7,0.00,NW,321,0.0,0.0,59,0.00,,---,0.00,VWS V14.00,2013-04-21 11:19:00,
2013-04-21 05:21:00,23.9,11.7,0.00,NW,308,0.0,0.0,59,0.00,,---,0.00,VWS V14.00,2013-04-21 11:21:00,
2013-04-21 05:22:00,23.9,11.7,0.00,NW,308,0.0,0.0,59,0.00,,---,0.00,VWS V14.00,2013-04-21 11:22:00,
2013-04-21 05:24:00,23.9,11.7,0.00,West,267,0.0,0.0,59,0.00,,---,0.00,VWS V14.00,2013-04-21 11:24:00,
2013-04-21 05:26:00,23.7,11.5,0.00,South,176,0.0,0.0,59,0.00,,---,0.00,VWS V14.00,2013-04-21 11:26:00,
2013-04-21 05:28:00,23.7,11.5,0.00,South,177,0.0,0.0,59,0.00,,---,0.00,VWS V14.00,2013-04-21 11:28:00,
2013-04-21 05:29:00,23.7,11.5,0.00,NNE,23,0.0,2.2,59,0.00,,---,0.00,VWS V14.00,2013-04-21 11:29:00,
2013-04-21 05:31:00,23.7,11.5,0.00,ESE,105,3.6,3.6,59,0.00,,---,0.00,VWS V14.00,2013-04-21 11:31:00,
2013-04-21 05:33:00,23.7,11.5,0.00,ESE,115,4.0,4.0,59,0.00,,---,0.00,VWS V14.00,2013-04-21 11:33:00,
2013-04-21 05:34:00,23.7,11.5,0.00,ENE,57,0.0,3.1,59,0.00,,---,0.00,VWS V14.00,2013-04-21 11:34:00,
2013-04-21 05:36:00,23.7,11.1,0.00,ENE,58,0.0,0.0,58,0.00,,---,0.00,VWS V14.00,2013-04-21 11:36:00,
2013-04-21 05:38:00,23.7,11.1,0.00,East,98,2.7,2.7,58,0.00,,---,0.00,VWS V14.00,2013-04-21 11:38:00,
2013-04-21 05:40:00,23.7,11.1,0.00,ENE,75,5.8,5.8,58,0.00,,---,0.00,VWS V14.00,2013-04-21 11:40:00,
2013-04-21 05:41:00,23.9,11.3,0.00,NE,44,2.7,2.7,58,0.00,,---,0.00,VWS V14.00,2013-04-21 11:41:00,
2013-04-21 05:42:00,23.9,11.3,0.00,ENE,67,2.7,2.7,58,0.00,,---,0.00,VWS V14.00,2013-04-21 11:42:00,
2013-04-21 05:43:00,23.9,11.3,0.00,SSE,158,3.1,3.6,58,0.00,,---,0.00,VWS V14.00,2013-04-21 11:43:00,
2013-04-21 05:45:00,23.9,11.3,0.00,ESE,109,2.7,3.6,58,0.00,,---,0.00,VWS V14.00,2013-04-21 11:45:00,
2013-04-21 05:46:00,23.9,11.3,0.00,East,93,4.0,4.0,58,0.00,,---,0.00,VWS V14.00,2013-04-21 11:46:00,
2013-04-21 05:47:00,23.9,11.3,0.00,East,93,4.0,4.0,58,0.00,,---,0.00,VWS V14.00,2013-04-21 11:47:00,
2013-04-21 05:48:00,23.9,11.3,0.00,ESE,111,2.2,3.6,58,0.00,,---,0.00,VWS V14.00,2013-04-21 11:48:00,
2013-04-21 05:50:00,23.9,11.3,0.00,ESE,112,3.1,5.4,58,0.00,,---,0.00,VWS V14.00,2013-04-21 11:50:00,
2013-04-21 05:52:00,23.9,11.3,0.00,ESE,116,4.0,5.8,58,0.00,,---,0.00,VWS V14.00,2013-04-21 11:52:00,
2013-04-21 05:53:00,23.9,11.3,0.00,East,93,3.1,5.4,58,0.00,,---,0.00,VWS V14.00,2013-04-21 11:53:00,
2013-04-21 05:55:00,24.1,11.5,0.00,SE,127,5.8,5.8,58,0.00,,---,0.00,VWS V14.00,2013-04-21 11:55:00,
2013-04-21 05:57:00,24.1,11.5,0.00,SE,126,3.6,5.4,58,0.00,,---,0.00,VWS V14.00,2013-04-21 11:57:00,
2013-04-21 05:58:00,24.1,11.1,0.00,ESE,115,0.0,2.7,57,0.00,,---,0.00,VWS V14.00,2013-04-21 11:58:00,
2013-04-21 06:00:00,24.1,11.1,0.00,SSW,192,0.0,2.7,57,0.00,,---,0.00,VWS V14.00,2013-04-21 12:00:00,
2013-04-21 06:02:00,24.3,11.2,0.00,SE,139,3.1,8.3,57,0.00,,---,0.00,VWS V14.00,2013-04-21 12:02:00,
2013-04-21 06:03:00,24.3,11.2,0.00,SE,125,4.9,5.8,57,0.00,,---,0.00,VWS V14.00,2013-04-21 12:03:00,
2013-04-21 06:05:00,24.3,10.8,0.00,South,181,4.9,6.3,56,0.00,,---,0.00,VWS V14.00,2013-04-21 12:05:00,
2013-04-21 06:07:00,24.4,11.0,0.00,East,94,3.1,3.1,56,0.00,,---,0.00,VWS V14.00,2013-04-21 12:07:00,
2013-04-21 06:08:00,24.4,11.0,0.00,East,87,4.0,4.9,56,0.00,,---,0.00,VWS V14.00,2013-04-21 12:08:00,
2013-04-21 06:10:00,24.4,11.0,0.00,ESE,106,3.6,4.9,56,0.00,,---,0.00,VWS V14.00,2013-04-21 12:10:00,
2013-04-21 06:12:00,24.4,11.0,0.00,East,84,4.0,8.1,56,0.00,,---,0.00,VWS V14.00,2013-04-21 12:12:00,
2013-04-21 06:13:00,24.4,10.6,0.00,SSW,208,3.1,3.1,55,0.00,,---,0.00,VWS V14.00,2013-04-21 12:13:00,
2013-04-21 06:15:00,24.6,10.8,0.00,ESE,112,3.1,4.9,55,0.00,,---,0.00,VWS V14.00,2013-04-21 12:15:00,
2013-04-21 06:17:00,24.6,10.8,0.00,SW,220,0.0,0.0,55,0.00,,---,0.00,VWS V14.00,2013-04-21 12:17:00,
2013-04-21 06:18:00,24.6,10.8,0.00,SW,233,0.0,0.0,55,0.00,,---,0.00,VWS V14.00,2013-04-21 12:18:00,
2013-04-21 06:21:00,24.6,11.2,0.00,WNW,287,2.2,3.1,56,0.00,,---,0.00,VWS V14.00,2013-04-21 12:21:00,
2013-04-21 06:22:00,24.6,11.2,0.00,WSW,240,0.0,0.0,56,0.00,,---,0.00,VWS V14.00,2013-04-21 12:22:00,
2013-04-21 06:23:00,24.6,11.2,0.00,SW,230,0.0,2.7,56,0.00,,---,0.00,VWS V14.00,2013-04-21 12:23:00,
2013-04-21 06:26:00,24.4,11.0,0.00,SW,229,0.0,0.0,56,0.00,,---,0.00,VWS V14.00,2013-04-21 12:26:00,
2013-04-21 06:27:00,24.4,11.0,0.00,SW,230,0.0,0.0,56,0.00,,---,0.00,VWS V14.00,2013-04-21 12:27:00,
2013-04-21 06:28:00,24.4,11.0,0.00,SW,230,0.0,0.0,56,0.00,,---,0.00,VWS V14.00,2013-04-21 12:28:00,
2013-04-21 06:31:00,24.4,11.0,0.00,SW,230,0.0,0.0,56,0.00,,---,0.00,VWS V14.00,2013-04-21 12:31:00,
2013-04-21 06:32:00,24.4,11.0,0.00,SW,230,0.0,0.0,56,0.00,,---,0.00,VWS V14.00,2013-04-21 12:32:00,
2013-04-21 06:33:00,24.4,11.0,0.00,SW,230,0.0,0.0,56,0.00,,---,0.00,VWS V14.00,2013-04-21 12:33:00,
2013-04-21 06:34:00,24.4,11.0,0.00,SW,230,0.0,0.0,56,0.00,,---,0.00,VWS V14.00,2013-04-21 12:34:00,
2013-04-21 06:37:00,24.4,11.0,0.00,SW,230,0.0,0.0,56,0.00,,---,0.00,VWS V14.00,2013-04-21 12:37:00,
2013-04-21 06:38:00,24.4,11.0,0.00,SW,230,0.0,0.0,56,0.00,,---,0.00,VWS V14.00,2013-04-21 12:38:00,
2013-04-21 06:39:00,24.4,11.0,0.00,SW,230,0.0,0.0,56,0.00,,---,0.00,VWS V14.00,2013-04-21 12:39:00,
2013-04-21 06:42:00,24.4,11.4,0.00,SW,230,0.0,0.0,57,0.00,,---,0.00,VWS V14.00,2013-04-21 12:42:00,
2013-04-21 06:43:00,24.3,11.2,0.00,SW,230,0.0,0.0,57,0.00,,---,0.00,VWS V14.00,2013-04-21 12:43:00,
2013-04-21 06:44:00,24.3,11.2,0.00,SW,230,0.0,0.0,57,0.00,,---,0.00,VWS V14.00,2013-04-21 12:44:00,
2013-04-21 06:47:00,24.3,11.2,0.00,SW,230,0.0,0.0,57,0.00,,---,0.00,VWS V14.00,2013-04-21 12:47:00,
2013-04-21 06:48:00,24.3,11.2,0.00,SW,230,0.0,0.0,57,0.00,,---,0.00,VWS V14.00,2013-04-21 12:48:00,
2013-04-21 06:49:00,24.3,11.2,0.00,SW,230,0.0,0.0,57,0.00,,---,0.00,VWS V14.00,2013-04-21 12:49:00,
2013-04-21 06:52:00,24.3,11.2,0.00,SW,230,0.0,0.0,57,0.00,,---,0.00,VWS V14.00,2013-04-21 12:52:00,
2013-04-21 06:53:00,24.3,11.2,0.00,SW,230,0.0,0.0,57,0.00,,---,0.00,VWS V14.00,2013-04-21 12:53:00,
2013-04-21 06:54:00,24.3,11.2,0.00,SW,230,0.0,0.0,57,0.00,,---,0.00,VWS V14.00,2013-04-21 12:54:00,
2013-04-21 06:57:00,24.3,11.2,0.00,SW,230,0.0,0.0,57,0.00,,---,0.00,VWS V14.00,2013-04-21 12:57:00,
2013-04-21 06:58:00,24.3,11.2,0.00,WSW,247,0.0,0.0,57,0.00,,---,0.00,VWS V14.00,2013-04-21 12:58:00,
2013-04-21 07:00:00,24.3,11.2,0.00,West,276,0.0,0.0,57,0.00,,---,0.00,VWS V14.00,2013-04-21 13:00:00,
2013-04-21 07:02:00,24.1,11.1,0.00,West,276,0.0,0.0,57,0.00,,---,0.00,VWS V14.00,2013-04-21 13:02:00,
2013-04-21 07:03:00,24.1,11.1,0.00,West,276,0.0,0.0,57,0.00,,---,0.00,VWS V14.00,2013-04-21 13:03:00,
2013-04-21 07:05:00,24.1,11.1,0.00,WNW,299,3.6,4.0,57,0.00,,---,0.00,VWS V14.00,2013-04-21 13:05:00,
2013-04-21 07:07:00,24.3,11.2,0.00,NW,308,0.0,0.0,57,0.00,,---,0.00,VWS V14.00,2013-04-21 13:07:00,
2013-04-21 07:08:00,24.3,11.2,0.00,NW,308,0.0,0.0,57,0.00,,---,0.00,VWS V14.00,2013-04-21 13:08:00,
2013-04-21 07:10:00,24.3,11.2,0.00,NW,306,0.0,0.0,57,0.00,,---,0.00,VWS V14.00,2013-04-21 13:10:00,
2013-04-21 07:13:00,24.3,11.2,0.00,NW,306,0.0,0.0,57,0.00,,---,0.00,VWS V14.00,2013-04-21 13:13:00,
2013-04-21 07:14:00,24.3,11.2,0.00,NW,306,0.0,0.0,57,0.00,,---,0.00,VWS V14.00,2013-04-21 13:14:00,
2013-04-21 07:15:00,24.3,11.2,0.00,NW,306,0.0,0.0,57,0.00,,---,0.00,VWS V14.00,2013-04-21 13:15:00,
2013-04-21 07:18:00,24.3,11.2,0.00,NW,306,0.0,0.0,57,0.00,,---,0.00,VWS V14.00,2013-04-21 13:18:00,
2013-04-21 07:19:00,24.3,11.2,0.00,NW,306,0.0,0.0,57,0.00,,---,0.00,VWS V14.00,2013-04-21 13:19:00,
2013-04-21 07:20:00,24.3,11.2,0.00,NW,306,0.0,0.0,57,0.00,,---,0.00,VWS V14.00,2013-04-21 13:20:00,
2013-04-21 07:23:00,24.3,11.2,0.00,WNW,296,0.0,0.0,57,0.00,,---,0.00,VWS V14.00,2013-04-21 13:23:00,
2013-04-21 07:24:00,24.3,11.2,0.00,WNW,296,0.0,0.0,57,0.00,,---,0.00,VWS V14.00,2013-04-21 13:24:00,
2013-04-21 07:25:00,24.3,11.2,0.00,WNW,293,0.0,0.0,57,0.00,,---,0.00,VWS V14.00,2013-04-21 13:25:00,
2013-04-21 07:28:00,24.4,11.4,0.00,WNW,283,0.0,0.0,57,0.00,,---,0.00,VWS V14.00,2013-04-21 13:28:00,
2013-04-21 07:29:00,24.4,11.4,0.00,WNW,284,0.0,0.0,57,0.00,,---,0.00,VWS V14.00,2013-04-21 13:29:00,
2013-04-21 07:30:00,24.4,11.4,0.00,WNW,283,0.0,0.0,57,0.00,,---,0.00,VWS V14.00,2013-04-21 13:30:00,
2013-04-21 07:33:00,24.4,11.4,0.00,WNW,283,0.0,0.0,57,0.00,,---,0.00,VWS V14.00,2013-04-21 13:33:00,
2013-04-21 07:34:00,24.4,11.8,0.00,WNW,283,0.0,0.0,58,0.00,,---,0.00,VWS V14.00,2013-04-21 13:34:00,
2013-04-21 07:35:00,24.4,11.4,0.00,WNW,291,2.2,2.7,57,0.00,,---,0.00,VWS V14.00,2013-04-21 13:35:00,
2013-04-21 07:36:00,24.6,11.6,0.00,WNW,291,2.7,2.7,57,0.00,,---,0.00,VWS V14.00,2013-04-21 13:36:00,
2013-04-21 07:38:00,24.6,11.6,0.00,WNW,300,0.0,0.0,57,0.00,,---,0.00,VWS V14.00,2013-04-21 13:38:00,
2013-04-21 07:39:00,24.6,12.0,0.00,WNW,299,0.0,0.0,58,0.00,,---,0.00,VWS V14.00,2013-04-21 13:39:00,
2013-04-21 07:40:00,24.8,12.1,0.00,WNW,299,0.0,0.0,58,0.00,,---,0.00,VWS V14.00,2013-04-21 13:40:00,
2013-04-21 07:41:00,24.8,12.1,0.00,WNW,291,0.0,0.0,58,0.00,,---,0.00,VWS V14.00,2013-04-21 13:41:00,
2013-04-21 07:43:00,24.8,12.1,0.00,WNW,287,0.0,0.0,58,0.00,,---,0.00,VWS V14.00,2013-04-21 13:43:00,
2013-04-21 07:44:00,24.8,12.1,0.00,WNW,284,0.0,0.0,58,0.00,,---,0.00,VWS V14.00,2013-04-21 13:44:00,
2013-04-21 07:46:00,25.0,12.3,0.00,WNW,283,0.0,0.0,58,0.00,,---,0.00,VWS V14.00,2013-04-21 13:46:00,
2013-04-21 07:48:00,25.2,12.5,0.00,WNW,282,0.0,0.0,58,0.00,,---,0.00,VWS V14.00,2013-04-21 13:48:00,
2013-04-21 07:49:00,25.2,12.5,0.00,West,280,0.0,0.0,58,0.00,,---,0.00,VWS V14.00,2013-04-21 13:49:00,
2013-04-21 07:51:00,25.3,12.6,0.00,West,278,0.0,0.0,58,0.00,,---,0.00,VWS V14.00,2013-04-21 13:51:00,
2013-04-21 07:53:00,25.3,12.6,0.00,West,281,0.0,0.0,58,0.00,,---,0.00,VWS V14.00,2013-04-21 13:53:00,
2013-04-21 07:54:00,25.5,12.8,0.00,West,273,0.0,0.0,58,0.00,,---,0.00,VWS V14.00,2013-04-21 13:54:00,
2013-04-21 07:56:00,25.5,12.4,0.00,West,280,0.0,0.0,57,0.00,,---,0.00,VWS V14.00,2013-04-21 13:56:00,
2013-04-21 07:58:00,25.7,12.6,0.00,West,278,0.0,0.0,57,0.00,,---,0.00,VWS V14.00,2013-04-21 13:58:00,
2013-04-21 07:59:00,25.7,12.6,0.00,West,279,0.0,0.0,57,0.00,,---,0.00,VWS V14.00,2013-04-21 13:59:00,
2013-04-21 08:00:00,25.9,12.8,0.00,West,269,0.0,0.0,57,0.00,,---,0.00,VWS V14.00,2013-04-21 14:00:00,
2013-04-21 08:01:00,25.9,12.8,0.00,West,279,0.0,0.0,57,0.00,,---,0.00,VWS V14.00,2013-04-21 14:01:00,
2013-04-21 08:03:00,26.1,12.9,0.00,West,278,0.0,0.0,57,0.00,,---,0.00,VWS V14.00,2013-04-21 14:03:00,
2013-04-21 08:04:00,26.1,12.9,0.00,West,279,0.0,0.0,57,0.00,,---,0.00,VWS V14.00,2013-04-21 14:04:00,
2013-04-21 08:05:00,26.2,13.1,0.00,West,279,0.0,0.0,57,0.00,,---,0.00,VWS V14.00,2013-04-21 14:05:00,
2013-04-21 08:06:00,26.2,13.1,0.00,West,280,0.0,0.0,57,0.00,,---,0.00,VWS V14.00,2013-04-21 14:06:00,
2013-04-21 08:09:00,26.4,13.3,0.00,West,261,2.2,2.2,57,0.00,,---,0.00,VWS V14.00,2013-04-21 14:09:00,
2013-04-21 08:10:00,26.6,13.4,0.00,West,259,0.0,2.2,57,0.00,,---,0.00,VWS V14.00,2013-04-21 14:10:00,
2013-04-21 08:11:00,26.6,13.4,0.00,WSW,256,0.0,0.0,57,0.00,,---,0.00,VWS V14.00,2013-04-21 14:11:00,
2013-04-21 08:14:00,27.0,13.4,0.00,West,259,0.0,0.0,56,0.00,,---,0.00,VWS V14.00,2013-04-21 14:14:00,
2013-04-21 08:15:00,27.0,13.4,0.00,West,259,0.0,0.0,56,0.00,,---,0.00,VWS V14.00,2013-04-21 14:15:00,
2013-04-21 08:16:00,27.1,13.5,0.00,West,259,0.0,0.0,56,0.00,,---,0.00,VWS V14.00,2013-04-21 14:16:00,
2013-04-21 08:19:00,27.3,13.7,0.00,West,259,0.0,0.0,56,0.00,,---,0.00,VWS V14.00,2013-04-21 14:19:00,
2013-04-21 08:20:00,27.5,13.9,0.00,West,259,0.0,0.0,56,0.00,,---,0.00,VWS V14.00,2013-04-21 14:20:00,
2013-04-21 08:21:00,27.7,14.0,0.00,West,259,0.0,0.0,56,0.00,,---,0.00,VWS V14.00,2013-04-21 14:21:00,
2013-04-21 08:24:00,27.9,14.2,0.00,WSW,258,0.0,0.0,56,0.00,,---,0.00,VWS V14.00,2013-04-21 14:24:00,
2013-04-21 08:25:00,27.9,14.2,0.00,WSW,256,0.0,0.0,56,0.00,,---,0.00,VWS V14.00,2013-04-21 14:25:00,
2013-04-21 08:27:00,28.0,14.0,0.00,WSW,256,0.0,0.0,55,0.00,,---,0.00,VWS V14.00,2013-04-21 14:27:00,
2013-04-21 08:29:00,28.4,14.3,0.00,WSW,247,0.0,0.0,55,0.00,,---,0.00,VWS V14.00,2013-04-21 14:29:00,
2013-04-21 08:30:00,28.4,13.9,0.00,WSW,247,0.0,0.0,54,0.00,,---,0.00,VWS V14.00,2013-04-21 14:30:00,
2013-04-21 08:32:00,28.6,13.6,0.00,WSW,247,0.0,0.0,53,0.00,,---,0.00,VWS V14.00,2013-04-21 14:32:00,
2013-04-21 08:34:00,28.8,14.2,0.00,WSW,247,0.0,0.0,54,0.00,,---,0.00,VWS V14.00,2013-04-21 14:34:00,
2013-04-21 08:35:00,28.8,13.8,0.00,WSW,247,0.0,0.0,53,0.00,,---,0.00,VWS V14.00,2013-04-21 14:35:00,
2013-04-21 08:37:00,28.9,14.0,0.00,WSW,241,0.0,0.0,53,0.00,,---,0.00,VWS V14.00,2013-04-21 14:37:00,
2013-04-21 08:39:00,29.1,14.1,0.00,WSW,248,0.0,0.0,53,0.00,,---,0.00,VWS V14.00,2013-04-21 14:39:00,
2013-04-21 08:40:00,29.3,14.3,0.00,WSW,248,0.0,2.2,53,0.00,,---,0.00,VWS V14.00,2013-04-21 14:40:00,
2013-04-21 08:42:00,29.5,14.5,0.00,WSW,249,0.0,0.0,53,0.00,,---,0.00,VWS V14.00,2013-04-21 14:42:00,
2013-04-21 08:44:00,29.5,14.5,0.00,WSW,249,0.0,0.0,53,0.00,,---,0.00,VWS V14.00,2013-04-21 14:44:00,
2013-04-21 08:45:00,29.5,14.0,0.00,WSW,242,0.0,0.0,52,0.00,,---,0.00,VWS V14.00,2013-04-21 14:45:00,
2013-04-21 08:47:00,29.7,14.2,0.00,WSW,244,0.0,0.0,52,0.00,,---,0.00,VWS V14.00,2013-04-21 14:47:00,
2013-04-21 08:49:00,29.8,14.4,0.00,WSW,251,0.0,0.0,52,0.00,,---,0.00,VWS V14.00,2013-04-21 14:49:00,
2013-04-21 08:50:00,29.8,14.4,0.00,WSW,249,0.0,0.0,52,0.00,,---,0.00,VWS V14.00,2013-04-21 14:50:00,
2013-04-21 08:52:00,30.0,14.5,0.00,WSW,244,0.0,0.0,52,0.00,,---,0.00,VWS V14.00,2013-04-21 14:52:00,
2013-04-21 08:53:00,30.0,14.5,0.00,WSW,251,0.0,0.0,52,0.00,,---,0.00,VWS V14.00,2013-04-21 14:53:00,
2013-04-21 08:55:00,30.2,14.7,0.00,WSW,244,0.0,0.0,52,0.00,,---,0.00,VWS V14.00,2013-04-21 14:55:00,
2013-04-21 08:57:00,30.2,14.3,0.00,WSW,250,0.0,0.0,51,0.00,,---,0.00,VWS V14.00,2013-04-21 14:57:00,
2013-04-21 08:58:00,30.2,14.7,0.00,WSW,251,0.0,0.0,52,0.00,,---,0.00,VWS V14.00,2013-04-21 14:58:00,
2013-04-21 09:00:00,30.2,14.7,0.00,WSW,248,0.0,0.0,52,0.00,,---,0.00,VWS V14.00,2013-04-21 15:00:00,
2013-04-21 09:03:00,30.4,14.9,0.00,WSW,250,0.0,0.0,52,0.00,,---,0.00,VWS V14.00,2013-04-21 15:03:00,
2013-04-21 09:05:00,30.6,15.0,0.00,WSW,247,0.0,0.0,52,0.00,,---,0.00,VWS V14.00,2013-04-21 15:05:00,
2013-04-21 09:08:00,30.7,14.8,0.00,WNW,297,4.0,4.0,51,0.00,,---,0.00,VWS V14.00,2013-04-21 15:08:00,
2013-04-21 09:10:00,31.1,15.1,0.00,WNW,298,0.0,0.0,51,0.00,,---,0.00,VWS V14.00,2013-04-21 15:10:00,
2013-04-21 09:13:00,31.1,15.1,0.00,WNW,296,0.0,0.0,51,0.00,,---,0.00,VWS V14.00,2013-04-21 15:13:00,
2013-04-21 09:14:00,31.3,15.3,0.00,WNW,284,2.7,3.1,51,0.00,,---,0.00,VWS V14.00,2013-04-21 15:14:00,
2013-04-21 09:15:00,31.5,15.4,0.00,WSW,254,2.7,2.7,51,0.00,,---,0.00,VWS V14.00,2013-04-21 15:15:00,
2013-04-21 09:16:00,31.5,15.4,0.00,West,269,2.7,2.7,51,0.00,,---,0.00,VWS V14.00,2013-04-21 15:16:00,
2013-04-21 09:18:00,31.6,15.6,0.00,West,270,0.0,0.0,51,0.00,,---,0.00,VWS V14.00,2013-04-21 15:18:00,
2013-04-21 09:19:00,31.8,15.8,0.00,West,273,0.0,0.0,51,0.00,,---,0.00,VWS V14.00,2013-04-21 15:19:00,
2013-04-21 09:20:00,32.0,15.9,0.00,WNW,292,0.0,0.0,51,0.00,,---,0.00,VWS V14.00,2013-04-21 15:20:00,
2013-04-21 09:21:00,32.0,15.9,0.00,WNW,292,0.0,0.0,51,0.00,,---,0.00,VWS V14.00,2013-04-21 15:21:00,
2013-04-21 09:23:00,32.2,15.6,0.00,SW,231,2.7,2.7,50,0.00,,---,0.00,VWS V14.00,2013-04-21 15:23:00,
2013-04-21 09:24:00,32.2,15.6,0.00,SW,231,0.0,2.7,50,0.00,,---,0.00,VWS V14.00,2013-04-21 15:24:00,
2013-04-21 09:26:00,32.4,15.4,0.00,SW,225,0.0,0.0,49,0.00,,---,0.00,VWS V14.00,2013-04-21 15:26:00,
2013-04-21 09:28:00,32.5,15.5,0.00,WNW,295,2.2,2.2,49,0.00,,---,0.00,VWS V14.00,2013-04-21 15:28:00,
2013-04-21 09:29:00,32.5,16.0,0.00,WNW,293,2.2,2.2,50,0.00,,---,0.00,VWS V14.00,2013-04-21 15:29:00,
2013-04-21 09:30:00,32.5,15.5,0.00,SW,223,2.2,2.2,49,0.00,,---,0.00,VWS V14.00,2013-04-21 15:30:00,
2013-04-21 09:31:00,32.5,15.5,0.00,WSW,257,2.2,2.2,49,0.00,,---,0.00,VWS V14.00,2013-04-21 15:31:00,
2013-04-21 09:33:00,32.9,15.4,0.00,WSW,254,0.0,0.0,48,0.00,,---,0.00,VWS V14.00,2013-04-21 15:33:00,
2013-04-21 09:34:00,32.9,15.4,0.00,WSW,257,0.0,0.0,48,0.00,,---,0.00,VWS V14.00,2013-04-21 15:34:00,
2013-04-21 09:36:00,33.1,16.0,0.00,WNW,302,5.4,5.4,49,0.00,,---,0.00,VWS V14.00,2013-04-21 15:36:00,
2013-04-21 09:38:00,33.3,15.7,0.00,SW,231,2.2,2.2,48,0.00,,---,0.00,VWS V14.00,2013-04-21 15:38:00,
2013-04-21 09:39:00,33.3,15.7,0.00,WSW,243,0.0,3.1,48,0.00,,---,0.00,VWS V14.00,2013-04-21 15:39:00,
2013-04-21 09:41:00,33.4,15.4,0.00,SW,227,0.0,0.0,47,0.00,,---,0.00,VWS V14.00,2013-04-21 15:41:00,
2013-04-21 09:42:00,33.4,15.4,0.00,WSW,256,0.0,2.7,47,0.00,,---,0.00,VWS V14.00,2013-04-21 15:42:00,
2013-04-21 09:44:00,33.6,15.6,0.00,SW,236,0.0,0.0,47,0.00,,---,0.00,VWS V14.00,2013-04-21 15:44:00,
2013-04-21 09:46:00,33.8,15.2,0.00,WSW,244,0.0,2.2,46,0.00,,---,0.00,VWS V14.00,2013-04-21 15:46:00,
2013-04-21 09:47:00,33.8,15.7,0.00,WSW,244,0.0,0.0,47,0.00,,---,0.00,VWS V14.00,2013-04-21 15:47:00,
2013-04-21 09:49:00,34.0,15.4,0.00,SW,232,2.2,2.7,46,0.00,,---,0.00,VWS V14.00,2013-04-21 15:49:00,
2013-04-21 09:51:00,34.2,15.6,0.00,SW,235,0.0,0.0,46,0.00,,---,0.00,VWS V14.00,2013-04-21 15:51:00,
2013-04-21 09:52:00,34.3,16.2,0.00,SW,230,0.0,0.0,47,0.00,,---,0.00,VWS V14.00,2013-04-21 15:52:00,
2013-04-21 09:54:00,34.5,16.4,0.00,WNW,298,2.7,3.1,47,0.00,,---,0.00,VWS V14.00,2013-04-21 15:54:00,
2013-04-21 09:56:00,34.7,16.0,0.00,WNW,300,0.0,0.0,46,0.00,,---,0.00,VWS V14.00,2013-04-21 15:56:00,
2013-04-21 09:57:00,34.7,16.0,0.00,WNW,298,0.0,0.0,46,0.00,,---,0.00,VWS V14.00,2013-04-21 15:57:00,
2013-04-21 09:59:00,34.9,16.7,0.00,WNW,300,0.0,0.0,47,0.00,,---,0.00,VWS V14.00,2013-04-21 15:59:00,
2013-04-21 10:01:00,35.1,16.4,0.00,WNW,300,0.0,0.0,46,0.00,,---,0.00,VWS V14.00,2013-04-21 16:01:00,
2013-04-21 10:02:00,35.2,16.5,0.00,West,280,0.0,0.0,46,0.00,,---,0.00,VWS V14.00,2013-04-21 16:02:00,
2013-04-21 10:04:00,35.4,16.7,0.00,West,273,0.0,0.0,46,0.00,,---,0.00,VWS V14.00,2013-04-21 16:04:00,
2013-04-21 10:06:00,35.6,16.9,0.00,SSE,149,0.0,0.0,46,0.00,,---,0.00,VWS V14.00,2013-04-21 16:06:00,
2013-04-21 10:07:00,35.6,16.9,0.00,SSE,149,0.0,0.0,46,0.00,,---,0.00,VWS V14.00,2013-04-21 16:07:00,
2013-04-21 10:09:00,35.8,17.5,0.00,WSW,258,0.0,0.0,47,0.00,,---,0.00,VWS V14.00,2013-04-21 16:09:00,
2013-04-21 10:10:00,35.8,17.5,0.00,WSW,254,2.7,2.7,47,0.00,,---,0.00,VWS V14.00,2013-04-21 16:10:00,
2013-04-21 10:11:00,36.0,17.7,0.00,SSE,158,0.0,2.2,47,0.00,,---,0.00,VWS V14.00,2013-04-21 16:11:00,
2013-04-21 10:12:00,36.0,17.7,0.00,East,85,0.0,0.0,47,0.00,,---,0.00,VWS V14.00,2013-04-21 16:12:00,
2013-04-21 10:15:00,36.3,18.0,0.00,ESE,105,0.0,2.7,47,0.00,,---,0.00,VWS V14.00,2013-04-21 16:15:00,
2013-04-21 10:16:00,36.3,18.0,0.00,East,84,3.6,3.6,47,0.00,,---,0.00,VWS V14.00,2013-04-21 16:16:00,
2013-04-21 10:17:00,36.5,18.2,0.00,East,84,3.6,3.6,47,0.00,,---,0.00,VWS V14.00,2013-04-21 16:17:00,
2013-04-21 10:20:00,36.7,18.4,0.00,NW,304,0.0,0.0,47,0.00,,---,0.00,VWS V14.00,2013-04-21 16:20:00,
2013-04-21 10:22:00,36.9,18.5,0.00,SE,130,3.6,5.4,47,0.08,,---,0.08,VWS V14.00,2013-04-21 16:22:00,
2013-04-21 10:23:00,37.0,18.7,0.00,SE,130,0.0,2.7,47,0.08,,---,0.08,VWS V14.00,2013-04-21 16:23:00,
2013-04-21 10:25:00,37.2,18.9,0.00,East,88,2.7,2.7,47,0.08,,---,0.08,VWS V14.00,2013-04-21 16:25:00,
2013-04-21 10:27:00,37.4,18.5,0.00,ESE,123,0.0,2.7,46,0.08,,---,0.08,VWS V14.00,2013-04-21 16:27:00,
2013-04-21 10:28:00,37.4,18.5,0.00,ESE,123,0.0,0.0,46,0.08,,---,0.08,VWS V14.00,2013-04-21 16:28:00,
2013-04-21 10:30:00,37.6,18.7,0.00,ENE,59,2.7,2.7,46,0.08,,---,0.08,VWS V14.00,2013-04-21 16:30:00,
2013-04-21 10:32:00,37.9,19.0,0.00,ESE,104,0.0,3.6,46,0.08,,---,0.08,VWS V14.00,2013-04-21 16:32:00,
2013-04-21 10:33:00,37.9,18.5,0.00,ESE,103,0.0,3.6,45,0.08,,---,0.08,VWS V14.00,2013-04-21 16:33:00,
2013-04-21 10:35:00,37.9,18.5,0.00,South,184,0.0,0.0,45,0.08,,---,0.08,VWS V14.00,2013-04-21 16:35:00,
2013-04-21 10:37:00,38.1,18.7,0.00,ESE,116,3.1,3.1,45,0.08,,---,0.08,VWS V14.00,2013-04-21 16:37:00,
2013-04-21 10:38:00,38.3,18.8,0.00,ESE,108,0.0,3.1,45,0.08,,---,0.08,VWS V14.00,2013-04-21 16:38:00,
2013-04-21 10:40:00,38.5,19.0,0.00,NW,317,0.0,2.2,45,0.08,,---,0.08,VWS V14.00,2013-04-21 16:40:00,
2013-04-21 10:42:00,38.5,19.0,0.00,ENE,77,0.0,0.0,45,0.08,,---,0.08,VWS V14.00,2013-04-21 16:42:00,
2013-04-21 10:43:00,38.5,19.0,0.00,ESE,114,0.0,0.0,45,0.08,,---,0.08,VWS V14.00,2013-04-21 16:43:00,
2013-04-21 10:45:00,38.7,18.6,0.00,WSW,256,0.0,0.0,44,0.08,,---,0.08,VWS V14.00,2013-04-21 16:45:00,
2013-04-21 10:46:00,38.7,18.6,0.00,WSW,256,0.0,0.0,44,0.08,,---,0.08,VWS V14.00,2013-04-21 16:46:00,
2013-04-21 10:47:00,38.8,18.8,0.00,South,180,0.0,0.0,44,0.08,,---,0.08,VWS V14.00,2013-04-21 16:47:00,
2013-04-21 10:48:00,38.8,18.8,0.00,South,180,0.0,0.0,44,0.08,,---,0.08,VWS V14.00,2013-04-21 16:48:00,
2013-04-21 10:50:00,39.0,19.0,0.00,South,170,2.2,2.2,44,0.08,,---,0.08,VWS V14.00,2013-04-21 16:50:00,
2013-04-21 10:51:00,39.2,18.6,0.00,SE,139,4.0,4.0,43,0.08,,---,0.08,VWS V14.00,2013-04-21 16:51:00,
2013-04-21 10:52:00,39.2,18.6,0.00,ENE,69,2.7,2.7,43,0.08,,---,0.08,VWS V14.00,2013-04-21 16:52:00,
2013-04-21 10:53:00,39.2,18.6,0.00,NE,45,3.1,3.1,43,0.08,,---,0.00,VWS V14.00,2013-04-21 16:53:00,
2013-04-21 10:55:00,39.4,18.8,0.00,ESE,108,0.0,2.2,43,0.08,,---,0.08,VWS V14.00,2013-04-21 16:55:00,
2013-04-21 10:56:00,39.6,19.5,0.00,SE,124,4.0,4.0,44,0.08,,---,0.08,VWS V14.00,2013-04-21 16:56:00,
2013-04-21 10:57:00,39.6,19.5,0.00,ESE,111,2.7,3.1,44,0.08,,---,0.08,VWS V14.00,2013-04-21 16:57:00,
2013-04-21 10:58:00,39.7,19.6,0.00,East,86,4.9,4.9,44,0.08,,---,0.08,VWS V14.00,2013-04-21 16:58:00,
2013-04-21 11:00:00,39.7,19.1,0.00,ESE,107,2.7,2.7,43,0.08,,---,0.08,VWS V14.00,2013-04-21 17:00:00,
2013-04-21 11:01:00,39.9,19.2,0.00,SE,137,4.0,4.0,43,0.08,,---,0.08,VWS V14.00,2013-04-21 17:01:00,
2013-04-21 11:03:00,39.9,19.2,0.00,ESE,116,2.7,6.3,43,0.08,,---,0.08,VWS V14.00,2013-04-21 17:03:00,
2013-04-21 11:04:00,39.9,19.2,0.00,East,88,3.1,3.6,43,0.08,,---,0.08,VWS V14.00,2013-04-21 17:04:00,
2013-04-21 11:05:00,40.1,19.4,0.00,East,94,2.7,3.1,43,0.08,,---,0.08,VWS V14.00,2013-04-21 17:05:00,
2013-04-21 11:06:00,40.1,19.4,0.00,East,94,0.0,0.0,43,0.08,,---,0.08,VWS V14.00,2013-04-21 17:06:00,
2013-04-21 11:08:00,40.3,19.6,0.00,East,100,2.7,4.0,43,0.08,,---,0.08,VWS V14.00,2013-04-21 17:08:00,
2013-04-21 11:09:00,40.3,19.6,0.00,East,97,4.0,4.0,43,0.08,,---,0.08,VWS V14.00,2013-04-21 17:09:00,
2013-04-21 11:10:00,40.5,19.7,0.00,East,88,0.0,0.0,43,0.08,,---,0.08,VWS V14.00,2013-04-21 17:10:00,
2013-04-21 11:11:00,40.5,19.7,0.00,ESE,105,0.0,0.0,43,0.08,,---,0.08,VWS V14.00,2013-04-21 17:11:00,
2013-04-21 11:13:00,40.5,19.7,0.00,ESE,103,2.2,4.0,43,0.08,,---,0.08,VWS V14.00,2013-04-21 17:13:00,
2013-04-21 11:14:00,40.6,19.9,0.00,ESE,105,3.1,4.9,43,0.08,,---,0.08,VWS V14.00,2013-04-21 17:14:00,
2013-04-21 11:15:00,40.6,19.9,0.00,ESE,114,4.0,4.9,43,0.08,,---,0.08,VWS V14.00,2013-04-21 17:15:00,
2013-04-21 11:16:00,40.6,19.9,0.00,SE,137,4.0,5.8,43,0.08,,---,0.08,VWS V14.00,2013-04-21 17:16:00,
2013-04-21 11:18:00,40.8,20.1,0.00,ESE,120,3.1,3.1,43,0.08,,---,0.08,VWS V14.00,2013-04-21 17:18:00,
2013-04-21 11:19:00,40.8,20.1,0.00,SE,128,6.7,6.7,43,0.08,,---,0.08,VWS V14.00,2013-04-21 17:19:00,
2013-04-21 11:20:00,40.8,20.1,0.00,SE,146,5.4,6.3,43,0.08,,---,0.08,VWS V14.00,2013-04-21 17:20:00,
2013-04-21 11:22:00,41.0,19.7,0.00,ESE,102,4.9,5.4,42,0.00,,---,0.08,VWS V14.00,2013-04-21 17:22:00,
2013-04-21 11:23:00,41.0,19.7,0.00,ESE,109,2.7,3.1,42,0.00,,---,0.08,VWS V14.00,2013-04-21 17:23:00,
2013-04-21 11:24:00,41.0,19.7,0.00,SE,141,5.4,5.4,42,0.00,,---,0.08,VWS V14.00,2013-04-21 17:24:00,
2013-04-21 11:26:00,41.2,19.9,0.00,ESE,111,6.3,6.3,42,0.00,,---,0.08,VWS V14.00,2013-04-21 17:26:00,
2013-04-21 11:27:00,41.2,19.9,0.00,ESE,108,3.1,3.6,42,0.00,,---,0.08,VWS V14.00,2013-04-21 17:27:00,
2013-04-21 11:28:00,41.2,19.9,0.00,ESE,113,3.1,3.6,42,0.00,,---,0.08,VWS V14.00,2013-04-21 17:28:00,
2013-04-21 11:29:00,41.2,19.9,0.00,ENE,61,2.7,4.0,42,0.00,,---,0.08,VWS V14.00,2013-04-21 17:29:00,
2013-04-21 11:31:00,41.2,19.3,0.00,ESE,117,3.6,6.3,41,0.00,,---,0.08,VWS V14.00,2013-04-21 17:31:00,
2013-04-21 11:32:00,41.4,19.5,0.00,South,191,3.6,4.0,41,0.00,,---,0.08,VWS V14.00,2013-04-21 17:32:00,
2013-04-21 11:33:00,41.4,19.5,0.00,ESE,113,8.7,9.2,41,0.00,,---,0.08,VWS V14.00,2013-04-21 17:33:00,
2013-04-21 11:34:00,41.4,19.5,0.00,ESE,103,4.5,9.2,41,0.00,,---,0.08,VWS V14.00,2013-04-21 17:34:00,
2013-04-21 11:35:00,41.4,19.5,0.00,ENE,69,3.6,4.9,41,0.00,,---,0.08,VWS V14.00,2013-04-21 17:35:00,
2013-04-21 11:36:00,41.4,19.5,0.00,ESE,117,5.4,5.4,41,0.00,,---,0.08,VWS V14.00,2013-04-21 17:36:00,
2013-04-21 11:37:00,41.4,19.5,0.00,East,100,4.0,4.0,41,0.00,,---,0.08,VWS V14.00,2013-04-21 17:37:00,
2013-04-21 11:38:00,41.5,19.6,0.00,East,85,3.6,3.6,41,0.00,,---,0.08,VWS V14.00,2013-04-21 17:38:00,
2013-04-21 11:39:00,41.5,19.6,0.00,East,83,4.0,4.0,41,0.00,,---,0.08,VWS V14.00,2013-04-21 17:39:00,
2013-04-21 11:40:00,41.5,19.6,0.00,SE,128,4.0,5.4,41,0.00,,---,0.08,VWS V14.00,2013-04-21 17:40:00,
2013-04-21 11:41:00,41.5,19.6,0.00,East,100,2.7,4.9,41,0.00,,---,0.08,VWS V14.00,2013-04-21 17:41:00,
2013-04-21 11:42:00,41.5,19.6,0.00,East,91,3.6,5.4,41,0.00,,---,0.08,VWS V14.00,2013-04-21 17:42:00,
2013-04-21 11:44:00,41.5,19.0,0.00,East,83,2.7,5.4,40,0.00,,---,0.08,VWS V14.00,2013-04-21 17:44:00,
2013-04-21 11:45:00,41.5,19.0,0.00,ENE,75,5.8,6.3,40,0.00,,---,0.08,VWS V14.00,2013-04-21 17:45:00,
2013-04-21 11:46:00,41.5,19.0,0.00,ESE,111,3.1,6.3,40,0.00,,---,0.08,VWS V14.00,2013-04-21 17:46:00,
2013-04-21 11:47:00,41.5,19.0,0.00,SE,131,6.3,6.3,40,0.00,,---,0.08,VWS V14.00,2013-04-21 17:47:00,
2013-04-21 11:49:00,41.5,19.0,0.00,ESE,113,3.6,4.9,40,0.00,,---,0.08,VWS V14.00,2013-04-21 17:49:00,
2013-04-21 11:50:00,41.7,19.2,0.00,SE,132,4.0,5.8,40,0.00,,---,0.08,VWS V14.00,2013-04-21 17:50:00,
2013-04-21 11:51:00,41.7,19.2,0.00,ESE,103,4.5,5.4,40,0.00,,---,0.08,VWS V14.00,2013-04-21 17:51:00,
2013-04-21 11:52:00,41.7,19.2,0.00,SW,236,2.7,2.7,40,0.00,,---,0.08,VWS V14.00,2013-04-21 17:52:00,
2013-04-21 11:54:00,41.7,19.2,0.00,East,100,5.4,5.4,40,0.00,,---,0.08,VWS V14.00,2013-04-21 17:54:00,
2013-04-21 11:55:00,41.7,19.2,0.00,ESE,102,6.3,6.3,40,0.00,,---,0.08,VWS V14.00,2013-04-21 17:55:00,
2013-04-21 11:56:00,41.7,19.2,0.00,ESE,104,3.1,6.3,40,0.00,,---,0.08,VWS V14.00,2013-04-21 17:56:00,
2013-04-21 11:57:00,41.7,19.8,0.00,SE,137,4.0,8.1,41,0.00,,---,0.08,VWS V14.00,2013-04-21 17:57:00,
2013-04-21 11:59:00,41.9,19.4,0.00,East,100,4.0,6.3,40,0.00,,---,0.08,VWS V14.00,2013-04-21 17:59:00,
2013-04-21 12:00:00,41.9,19.4,0.00,SE,127,3.6,3.6,40,0.00,,---,0.08,VWS V14.00,2013-04-21 18:00:00,
2013-04-21 12:01:00,42.1,19.5,0.00,ESE,118,0.0,3.6,40,0.00,,---,0.08,VWS V14.00,2013-04-21 18:01:00,
2013-04-21 12:02:00,42.1,19.5,0.00,SE,125,3.6,6.3,40,0.00,,---,0.08,VWS V14.00,2013-04-21 18:02:00,
2013-04-21 12:04:00,42.1,19.5,0.00,SE,129,4.9,4.9,40,0.00,,---,0.08,VWS V14.00,2013-04-21 18:04:00,
2013-04-21 12:05:00,42.1,19.5,0.00,ESE,112,7.6,9.2,40,0.00,,---,0.08,VWS V14.00,2013-04-21 18:05:00,
2013-04-21 12:06:00,42.1,19.5,0.00,ESE,119,2.2,6.3,40,0.00,,---,0.08,VWS V14.00,2013-04-21 18:06:00,
2013-04-21 12:08:00,42.1,19.5,0.00,SE,132,3.6,5.4,40,0.00,,---,0.08,VWS V14.00,2013-04-21 18:08:00,
2013-04-21 12:09:00,42.3,19.7,0.00,SSE,154,4.0,4.0,40,0.00,,---,0.08,VWS V14.00,2013-04-21 18:09:00,
2013-04-21 12:10:00,42.3,19.7,0.00,ESE,103,2.7,2.7,40,0.00,,---,0.08,VWS V14.00,2013-04-21 18:10:00,
2013-04-21 12:11:00,42.3,19.7,0.00,ESE,120,3.6,4.0,40,0.00,,---,0.08,VWS V14.00,2013-04-21 18:11:00,
2013-04-21 12:13:00,42.3,19.7,0.00,ENE,65,5.8,5.8,40,0.00,,---,0.08,VWS V14.00,2013-04-21 18:13:00,
2013-04-21 12:14:00,42.3,19.7,0.00,ESE,105,5.8,6.3,40,0.00,,---,0.08,VWS V14.00,2013-04-21 18:14:00,
2013-04-21 12:15:00,42.3,19.7,0.00,East,80,0.0,0.0,40,0.00,,---,0.08,VWS V14.00,2013-04-21 18:15:00,
2013-04-21 12:16:00,42.3,19.7,0.00,ESE,112,4.9,4.9,40,0.00,,---,0.08,VWS V14.00,2013-04-21 18:16:00,
2013-04-21 12:18:00,42.4,19.8,0.00,South,177,0.0,2.2,40,0.00,,---,0.08,VWS V14.00,2013-04-21 18:18:00,
2013-04-21 12:20:00,42.4,19.8,0.00,South,171,4.0,7.6,40,0.00,,---,0.08,VWS V14.00,2013-04-21 18:20:00,
2013-04-21 12:21:00,42.4,19.8,0.00,ESE,109,8.3,8.3,40,0.00,,---,0.08,VWS V14.00,2013-04-21 18:21:00,
2013-04-21 12:23:00,42.6,20.0,0.00,East,95,3.6,3.6,40,0.00,,---,0.08,VWS V14.00,2013-04-21 18:23:00,
2013-04-21 12:25:00,42.6,20.0,0.00,ESE,104,2.7,2.7,40,0.00,,---,0.08,VWS V14.00,2013-04-21 18:25:00,
2013-04-21 12:26:00,42.6,20.0,0.00,SE,131,5.4,5.4,40,0.00,,---,0.08,VWS V14.00,2013-04-21 18:26:00,
2013-04-21 12:29:00,42.8,19.6,0.00,ESE,105,3.1,8.3,39,0.00,,---,0.08,VWS V14.00,2013-04-21 18:29:00,
2013-04-21 12:30:00,42.8,19.6,0.00,SE,127,5.8,5.8,39,0.00,,---,0.08,VWS V14.00,2013-04-21 18:30:00,
2013-04-21 12:31:00,42.8,19.6,0.00,SE,137,3.6,5.8,39,0.00,,---,0.08,VWS V14.00,2013-04-21 18:31:00,
2013-04-21 12:34:00,42.8,19.6,0.00,ENE,68,3.6,3.6,39,0.00,,---,0.08,VWS V14.00,2013-04-21 18:34:00,
2013-04-21 12:35:00,42.8,19.6,0.00,SE,129,8.3,8.3,39,0.00,,---,0.08,VWS V14.00,2013-04-21 18:35:00,
2013-04-21 12:36:00,42.8,19.6,0.00,ESE,116,5.8,8.3,39,0.00,,---,0.08,VWS V14.00,2013-04-21 18:36:00,
2013-04-21 12:37:00,42.8,19.6,0.00,SE,131,4.9,5.8,39,0.00,,---,0.08,VWS V14.00,2013-04-21 18:37:00,
2013-04-21 12:39:00,42.8,19.6,0.00,SE,130,2.2,4.0,39,0.00,,---,0.08,VWS V14.00,2013-04-21 18:39:00,
2013-04-21 12:40:00,42.8,19.6,0.00,East,88,5.4,5.4,39,0.00,,---,0.08,VWS V14.00,2013-04-21 18:40:00,
2013-04-21 12:41:00,42.8,19.6,0.00,SE,124,5.4,5.4,39,0.00,,---,0.08,VWS V14.00,2013-04-21 18:41:00,
2013-04-21 12:42:00,42.8,19.6,0.00,SW,216,5.8,5.8,39,0.00,,---,0.08,VWS V14.00,2013-04-21 18:42:00,
2013-04-21 12:44:00,43.0,19.7,0.00,SW,233,4.0,4.0,39,0.00,,---,0.08,VWS V14.00,2013-04-21 18:44:00,
2013-04-21 12:45:00,43.0,19.7,0.00,SE,142,6.3,8.7,39,0.00,,---,0.08,VWS V14.00,2013-04-21 18:45:00,
2013-04-21 12:46:00,43.0,19.7,0.00,SE,131,5.4,5.8,39,0.00,,---,0.08,VWS V14.00,2013-04-21 18:46:00,
2013-04-21 12:47:00,43.0,19.7,0.00,ENE,62,7.6,7.6,39,0.00,,---,0.08,VWS V14.00,2013-04-21 18:47:00,
2013-04-21 12:49:00,43.0,19.7,0.00,ESE,116,5.4,8.1,39,0.00,,---,0.08,VWS V14.00,2013-04-21 18:49:00,
2013-04-21 12:50:00,43.0,19.7,0.00,SE,124,3.1,8.3,39,0.00,,---,0.08,VWS V14.00,2013-04-21 18:50:00,
2013-04-21 12:51:00,43.0,19.7,0.00,ENE,65,5.8,8.3,39,0.00,,---,0.08,VWS V14.00,2013-04-21 18:51:00,
2013-04-21 12:52:00,43.0,19.7,0.00,SE,138,3.1,4.9,39,0.00,,---,0.08,VWS V14.00,2013-04-21 18:52:00,
2013-04-21 12:54:00,43.0,19.7,0.00,East,89,4.0,4.9,39,0.00,,---,0.08,VWS V14.00,2013-04-21 18:54:00,
2013-04-21 12:56:00,43.0,19.7,0.00,South,190,5.8,8.1,39,0.00,,---,0.08,VWS V14.00,2013-04-21 18:56:00,
2013-04-21 12:57:00,43.0,19.7,0.00,NE,55,4.0,5.8,39,0.00,,---,0.08,VWS V14.00,2013-04-21 18:57:00,
2013-04-21 12:59:00,43.0,19.1,0.00,ESE,123,3.1,4.0,38,0.00,,---,0.08,VWS V14.00,2013-04-21 18:59:00,
2013-04-21 13:01:00,43.0,19.1,0.00,ESE,104,3.6,5.8,38,0.00,,---,0.08,VWS V14.00,2013-04-21 19:01:00,
2013-04-21 13:02:00,43.0,19.1,0.00,ENE,78,5.8,6.7,38,0.00,,---,0.08,VWS V14.00,2013-04-21 19:02:00,
2013-04-21 13:05:00,43.0,19.7,0.00,ESE,112,4.0,4.0,39,0.00,,---,0.08,VWS V14.00,2013-04-21 19:05:00,
2013-04-21 13:06:00,43.0,19.1,0.00,East,81,3.1,3.1,38,0.00,,---,0.08,VWS V14.00,2013-04-21 19:06:00,
2013-04-21 13:08:00,43.0,19.1,0.00,ESE,110,8.1,8.1,38,0.00,,---,0.08,VWS V14.00,2013-04-21 19:08:00,
2013-04-21 13:10:00,43.0,19.1,0.00,East,95,5.8,7.6,38,0.00,,---,0.08,VWS V14.00,2013-04-21 19:10:00,
2013-04-21 13:11:00,43.0,19.1,0.00,East,87,5.8,5.8,38,0.00,,---,0.08,VWS V14.00,2013-04-21 19:11:00,
2013-04-21 13:12:00,43.0,19.1,0.00,ESE,114,8.3,8.3,38,0.00,,---,0.08,VWS V14.00,2013-04-21 19:12:00,
2013-04-21 13:13:00,43.0,19.1,0.00,SE,124,9.6,9.6,38,0.00,,---,0.08,VWS V14.00,2013-04-21 19:13:00,
2013-04-21 13:15:00,43.0,19.1,0.00,East,101,3.6,8.7,38,0.00,,---,0.08,VWS V14.00,2013-04-21 19:15:00,
2013-04-21 13:16:00,43.0,19.1,0.00,SE,141,3.6,10.5,38,0.00,,---,0.08,VWS V14.00,2013-04-21 19:16:00,
2013-04-21 13:17:00,43.0,19.1,0.00,SE,136,5.8,5.8,38,0.00,,---,0.08,VWS V14.00,2013-04-21 19:17:00,
2013-04-21 13:18:00,43.0,19.1,0.00,ESE,117,3.6,6.3,38,0.00,,---,0.08,VWS V14.00,2013-04-21 19:18:00,
2013-04-21 13:20:00,43.0,19.1,0.00,ESE,114,4.0,7.2,38,0.00,,---,0.08,VWS V14.00,2013-04-21 19:20:00,
2013-04-21 13:21:00,42.8,19.0,0.00,SE,129,5.8,6.3,38,0.00,,---,0.08,VWS V14.00,2013-04-21 19:21:00,
2013-04-21 13:22:00,42.8,19.0,0.00,ESE,107,8.1,8.1,38,0.00,,---,0.08,VWS V14.00,2013-04-21 19:22:00,
2013-04-21 13:23:00,42.8,19.0,0.00,ESE,102,4.0,6.3,38,0.00,,---,0.08,VWS V14.00,2013-04-21 19:23:00,
2013-04-21 13:25:00,43.0,19.1,0.00,SE,124,8.3,8.3,38,0.00,,---,0.08,VWS V14.00,2013-04-21 19:25:00,
2013-04-21 13:26:00,42.8,19.0,0.00,ENE,71,5.4,5.4,38,0.00,,---,0.08,VWS V14.00,2013-04-21 19:26:00,
2013-04-21 13:27:00,42.8,19.0,0.00,East,86,5.4,7.6,38,0.00,,---,0.08,VWS V14.00,2013-04-21 19:27:00,
2013-04-21 13:28:00,42.8,19.0,0.00,East,84,6.7,6.7,38,0.00,,---,0.08,VWS V14.00,2013-04-21 19:28:00,
2013-04-21 13:31:00,42.8,19.0,0.00,ESE,113,5.8,5.8,38,0.00,,---,0.08,VWS V14.00,2013-04-21 19:31:00,
2013-04-21 13:32:00,42.8,19.0,0.00,ESE,104,5.4,5.8,38,0.00,,---,0.08,VWS V14.00,2013-04-21 19:32:00,
2013-04-21 13:33:00,42.8,19.0,0.00,ENE,68,6.3,8.7,38,0.00,,---,0.08,VWS V14.00,2013-04-21 19:33:00,
2013-04-21 13:36:00,42.6,18.8,0.00,East,87,5.4,5.4,38,0.00,,---,0.08,VWS V14.00,2013-04-21 19:36:00,
2013-04-21 13:37:00,42.6,18.8,0.00,ESE,107,8.3,8.3,38,0.00,,---,0.08,VWS V14.00,2013-04-21 19:37:00,
2013-04-21 13:39:00,42.6,18.8,0.00,ESE,117,3.6,6.3,38,0.00,,---,0.08,VWS V14.00,2013-04-21 19:39:00,
2013-04-21 13:41:00,42.4,18.6,0.00,SE,133,3.1,4.0,38,0.00,,---,0.08,VWS V14.00,2013-04-21 19:41:00,
2013-04-21 13:42:00,42.4,18.6,0.00,ESE,115,3.6,6.3,38,0.00,,---,0.08,VWS V14.00,2013-04-21 19:42:00,
2013-04-21 13:44:00,42.4,18.6,0.00,ESE,113,5.8,5.8,38,0.00,,---,0.08,VWS V14.00,2013-04-21 19:44:00,
2013-04-21 13:46:00,42.6,19.4,0.00,NE,47,7.6,7.6,39,0.00,,---,0.08,VWS V14.00,2013-04-21 19:46:00,
2013-04-21 13:47:00,42.6,19.4,0.00,SW,227,7.6,7.6,39,0.00,,---,0.08,VWS V14.00,2013-04-21 19:47:00,
2013-04-21 13:49:00,42.8,19.0,0.00,East,96,8.7,8.7,38,0.00,,---,0.08,VWS V14.00,2013-04-21 19:49:00,
2013-04-21 13:51:00,42.8,19.0,0.00,ESE,119,6.3,6.3,38,0.00,,---,0.08,VWS V14.00,2013-04-21 19:51:00,
2013-04-21 13:52:00,42.8,19.0,0.00,ESE,114,6.3,6.3,38,0.00,,---,0.08,VWS V14.00,2013-04-21 19:52:00,
2013-04-21 13:54:00,43.0,19.1,0.00,East,87,2.2,5.8,38,0.00,,---,0.08,VWS V14.00,2013-04-21 19:54:00,
2013-04-21 13:56:00,43.0,19.1,0.00,East,90,4.9,8.1,38,0.00,,---,0.08,VWS V14.00,2013-04-21 19:56:00,
2013-04-21 13:57:00,43.0,19.1,0.00,ESE,120,4.9,8.1,38,0.00,,---,0.08,VWS V14.00,2013-04-21 19:57:00,
2013-04-21 13:59:00,43.0,19.1,0.00,SE,129,5.4,6.3,38,0.00,,---,0.08,VWS V14.00,2013-04-21 19:59:00,
2013-04-21 14:02:00,43.2,19.3,0.00,ESE,113,4.0,5.8,38,0.00,,---,0.08,VWS V14.00,2013-04-21 20:02:00,
2013-04-21 14:04:00,43.3,19.5,0.00,SW,221,6.3,6.3,38,0.00,,---,0.08,VWS V14.00,2013-04-21 20:04:00,
2013-04-21 14:07:00,43.3,19.5,0.00,SSE,151,5.8,5.8,38,0.00,,---,0.08,VWS V14.00,2013-04-21 20:07:00,
2013-04-21 14:08:00,43.5,19.6,0.00,SW,222,2.7,5.8,38,0.00,,---,0.08,VWS V14.00,2013-04-21 20:08:00,
2013-04-21 14:09:00,43.5,19.6,0.00,SW,218,0.0,2.7,38,0.00,,---,0.08,VWS V14.00,2013-04-21 20:09:00,
2013-04-21 14:12:00,43.5,19.6,0.00,SW,218,5.4,5.4,38,0.00,,---,0.08,VWS V14.00,2013-04-21 20:12:00,
2013-04-21 14:13:00,43.7,19.8,0.00,SE,145,6.3,6.3,38,0.00,,---,0.08,VWS V14.00,2013-04-21 20:13:00,
2013-04-21 14:14:00,43.7,19.8,0.00,East,92,3.6,6.3,38,0.00,,---,0.08,VWS V14.00,2013-04-21 20:14:00,
2013-04-21 14:17:00,44.1,20.1,0.00,East,89,5.4,6.3,38,0.00,,---,0.08,VWS V14.00,2013-04-21 20:17:00,
2013-04-21 14:18:00,44.1,20.1,0.00,ESE,113,5.8,8.3,38,0.00,,---,0.08,VWS V14.00,2013-04-21 20:18:00,
2013-04-21 14:19:00,44.1,20.1,0.00,East,98,5.4,7.6,38,0.00,,---,0.08,VWS V14.00,2013-04-21 20:19:00,
2013-04-21 14:22:00,44.2,20.3,0.00,SE,128,2.7,7.6,38,0.00,,---,0.08,VWS V14.00,2013-04-21 20:22:00,
2013-04-21 14:23:00,44.4,20.4,0.00,SE,130,4.9,5.4,38,0.00,,---,0.08,VWS V14.00,2013-04-21 20:23:00,
2013-04-21 14:24:00,44.4,20.4,0.00,SE,131,3.6,5.4,38,0.00,,---,0.08,VWS V14.00,2013-04-21 20:24:00,
2013-04-21 14:27:00,44.6,20.6,0.00,ENE,74,5.8,5.8,38,0.00,,---,0.08,VWS V14.00,2013-04-21 20:27:00,
2013-04-21 14:28:00,44.8,20.7,0.00,East,97,6.3,6.3,38,0.00,,---,0.08,VWS V14.00,2013-04-21 20:28:00,
2013-04-21 14:29:00,44.8,20.7,0.00,ESE,104,2.2,2.2,38,0.00,,---,0.08,VWS V14.00,2013-04-21 20:29:00,
2013-04-21 14:32:00,45.1,21.1,0.00,ESE,120,6.3,6.3,38,0.00,,---,0.08,VWS V14.00,2013-04-21 20:32:00,
2013-04-21 14:33:00,45.1,21.1,0.00,ESE,113,3.6,6.3,38,0.00,,---,0.08,VWS V14.00,2013-04-21 20:33:00,
2013-04-21 14:34:00,45.1,21.1,0.00,SW,215,8.7,10.5,38,0.00,,---,0.08,VWS V14.00,2013-04-21 20:34:00,
2013-04-21 14:37:00,45.3,21.2,0.00,ESE,108,6.3,6.3,38,0.00,,---,0.08,VWS V14.00,2013-04-21 20:37:00,
2013-04-21 14:38:00,45.5,21.4,0.00,ESE,107,4.5,6.3,38,0.00,,---,0.08,VWS V14.00,2013-04-21 20:38:00,
2013-04-21 14:39:00,45.5,21.4,0.00,ENE,75,4.0,4.0,38,0.00,,---,0.08,VWS V14.00,2013-04-21 20:39:00,
2013-04-21 14:43:00,45.5,21.4,0.00,SE,128,3.6,4.9,38,0.00,,---,0.08,VWS V14.00,2013-04-21 20:43:00,
2013-04-21 14:44:00,45.7,21.5,0.00,East,92,6.3,6.3,38,0.00,,---,0.08,VWS V14.00,2013-04-21 20:44:00,
2013-04-21 14:48:00,45.9,21.7,0.00,SE,125,5.8,9.6,38,0.00,,---,0.08,VWS V14.00,2013-04-21 20:48:00,
2013-04-21 14:49:00,45.9,21.7,0.00,ESE,102,4.9,6.3,38,0.00,,---,0.08,VWS V14.00,2013-04-21 20:49:00,
2013-04-21 14:53:00,46.2,22.0,0.00,ESE,123,8.1,10.1,38,0.00,,---,0.08,VWS V14.00,2013-04-21 20:53:00,
2013-04-21 14:54:00,46.0,21.9,0.00,ESE,103,6.3,8.1,38,0.00,,---,0.08,VWS V14.00,2013-04-21 20:54:00,
2013-04-21 14:58:00,46.0,21.9,0.00,East,98,8.7,9.2,38,0.00,,---,0.08,VWS V14.00,2013-04-21 20:58:00,
2013-04-21 14:59:00,46.0,21.9,0.00,SE,146,5.8,8.7,38,0.00,,---,0.08,VWS V14.00,2013-04-21 20:59:00,
2013-04-21 15:03:00,46.0,21.9,0.00,SSE,159,4.9,5.8,38,0.00,,---,0.08,VWS V14.00,2013-04-21 21:03:00,
2013-04-21 15:04:00,46.0,21.9,0.00,East,98,8.1,8.7,38,0.00,,---,0.08,VWS V14.00,2013-04-21 21:04:00,
2013-04-21 15:05:00,46.0,22.5,0.00,ESE,123,10.1,10.1,39,0.00,,---,0.08,VWS V14.00,2013-04-21 21:05:00,
2013-04-21 15:08:00,45.9,22.3,0.00,SE,138,2.7,10.1,39,0.00,,---,0.08,VWS V14.00,2013-04-21 21:08:00,
2013-04-21 15:09:00,45.9,22.3,0.00,ENE,59,5.8,10.1,39,0.00,,---,0.08,VWS V14.00,2013-04-21 21:09:00,
2013-04-21 15:10:00,45.7,22.2,0.00,ESE,112,8.1,8.1,39,0.00,,---,0.08,VWS V14.00,2013-04-21 21:10:00,
2013-04-21 15:13:00,45.7,22.2,0.00,SE,131,5.4,8.7,39,0.00,,---,0.08,VWS V14.00,2013-04-21 21:13:00,
2013-04-21 15:14:00,45.7,22.2,0.00,ESE,116,4.9,6.3,39,0.00,,---,0.08,VWS V14.00,2013-04-21 21:14:00,
2013-04-21 15:15:00,45.9,22.3,0.00,ESE,121,3.6,8.1,39,0.00,,---,0.08,VWS V14.00,2013-04-21 21:15:00,
2013-04-21 15:18:00,45.9,22.3,0.00,ESE,115,4.0,4.0,39,0.00,,---,0.08,VWS V14.00,2013-04-21 21:18:00,
2013-04-21 15:19:00,45.9,22.3,0.00,South,179,3.1,7.6,39,0.00,,---,0.08,VWS V14.00,2013-04-21 21:19:00,
2013-04-21 15:20:00,45.7,22.2,0.00,ESE,121,3.6,3.6,39,0.00,,---,0.08,VWS V14.00,2013-04-21 21:20:00,
2013-04-21 15:23:00,45.7,22.2,0.00,SE,132,7.6,11.0,39,0.00,,---,0.08,VWS V14.00,2013-04-21 21:23:00,
2013-04-21 15:24:00,45.7,22.2,0.00,East,93,8.7,8.7,39,0.00,,---,0.08,VWS V14.00,2013-04-21 21:24:00,
2013-04-21 15:26:00,45.7,22.2,0.00,SE,132,4.5,4.5,39,0.00,,---,0.08,VWS V14.00,2013-04-21 21:26:00,
2013-04-21 15:28:00,45.7,22.2,0.00,ESE,112,6.3,6.3,39,0.00,,---,0.08,VWS V14.00,2013-04-21 21:28:00,
2013-04-21 15:29:00,45.5,22.0,0.00,SE,138,4.9,4.9,39,0.00,,---,0.08,VWS V14.00,2013-04-21 21:29:00,
2013-04-21 15:30:00,45.5,22.0,0.00,SE,143,3.6,5.8,39,0.00,,---,0.08,VWS V14.00,2013-04-21 21:30:00,
2013-04-21 15:32:00,45.7,22.2,0.00,SE,143,8.1,11.0,39,0.00,,---,0.08,VWS V14.00,2013-04-21 21:32:00,
2013-04-21 15:33:00,45.7,22.2,0.00,ESE,113,5.4,7.6,39,0.00,,---,0.08,VWS V14.00,2013-04-21 21:33:00,
2013-04-21 15:34:00,45.7,22.2,0.00,East,99,5.8,7.6,39,0.00,,---,0.08,VWS V14.00,2013-04-21 21:34:00,
2013-04-21 15:35:00,45.9,22.3,0.00,South,180,3.1,7.6,39,0.00,,---,0.08,VWS V14.00,2013-04-21 21:35:00,
2013-04-21 15:37:00,45.9,22.3,0.00,East,100,5.4,7.6,39,0.00,,---,0.08,VWS V14.00,2013-04-21 21:37:00,
2013-04-21 15:39:00,45.9,22.3,0.00,ESE,119,10.1,10.1,39,0.00,,---,0.08,VWS V14.00,2013-04-21 21:39:00,
2013-04-21 15:40:00,45.9,22.3,0.00,ENE,71,5.8,6.3,39,0.00,,---,0.08,VWS V14.00,2013-04-21 21:40:00,
2013-04-21 15:42:00,45.9,22.3,0.00,SE,136,8.1,8.1,39,0.00,,---,0.08,VWS V14.00,2013-04-21 21:42:00,
2013-04-21 15:44:00,46.0,22.5,0.00,ESE,105,7.6,7.6,39,0.00,,---,0.08,VWS V14.00,2013-04-21 21:44:00,
2013-04-21 15:45:00,46.0,22.5,0.00,East,98,3.6,8.3,39,0.00,,---,0.08,VWS V14.00,2013-04-21 21:45:00,
2013-04-21 15:47:00,46.0,22.5,0.00,East,86,6.3,8.1,39,0.00,,---,0.08,VWS V14.00,2013-04-21 21:47:00,
2013-04-21 15:49:00,46.2,22.6,0.00,NE,55,6.3,8.1,39,0.00,,---,0.08,VWS V14.00,2013-04-21 21:49:00,
2013-04-21 15:50:00,46.2,22.0,0.00,ENE,68,8.7,8.7,38,0.00,,---,0.08,VWS V14.00,2013-04-21 21:50:00,
2013-04-21 15:52:00,46.2,22.6,0.00,ESE,114,5.4,8.7,39,0.00,,---,0.08,VWS V14.00,2013-04-21 21:52:00,
2013-04-21 15:54:00,46.2,22.6,0.00,ESE,122,7.2,10.1,39,0.00,,---,0.08,VWS V14.00,2013-04-21 21:54:00,
2013-04-21 15:55:00,46.2,22.6,0.00,East,92,4.9,4.9,39,0.00,,---,0.08,VWS V14.00,2013-04-21 21:55:00,
2013-04-21 15:57:00,46.2,22.6,0.00,East,97,5.4,5.4,39,0.00,,---,0.08,VWS V14.00,2013-04-21 21:57:00,
2013-04-21 15:59:00,46.2,22.6,0.00,East,93,2.7,4.9,39,0.00,,---,0.08,VWS V14.00,2013-04-21 21:59:00,
2013-04-21 16:00:00,46.2,22.6,0.00,East,88,3.6,5.4,39,0.00,,---,0.08,VWS V14.00,2013-04-21 22:00:00,
2013-04-21 16:01:00,46.2,22.6,0.00,ENE,74,5.4,5.4,39,0.00,,---,0.08,VWS V14.00,2013-04-21 22:01:00,
2013-04-21 16:02:00,46.2,22.6,0.00,NE,37,4.0,6.3,39,0.00,,---,0.08,VWS V14.00,2013-04-21 22:02:00,
2013-04-21 16:04:00,46.4,22.2,0.00,ENE,65,5.8,8.7,38,0.00,,---,0.08,VWS V14.00,2013-04-21 22:04:00,
2013-04-21 16:05:00,46.4,22.2,0.00,East,79,3.6,8.7,38,0.00,,---,0.08,VWS V14.00,2013-04-21 22:05:00,
2013-04-21 16:06:00,46.4,22.2,0.00,ESE,123,5.4,5.8,38,0.00,,---,0.08,VWS V14.00,2013-04-21 22:06:00,
2013-04-21 16:07:00,46.4,22.2,0.00,East,96,6.7,7.2,38,0.00,,---,0.08,VWS V14.00,2013-04-21 22:07:00,
2013-04-21 16:09:00,46.4,22.2,0.00,ESE,123,10.1,10.1,38,0.00,,---,0.08,VWS V14.00,2013-04-21 22:09:00,
2013-04-21 16:10:00,46.6,22.4,0.00,SE,124,5.8,10.1,38,0.00,,---,0.08,VWS V14.00,2013-04-21 22:10:00,
2013-04-21 16:11:00,46.6,22.4,0.00,East,94,5.4,7.2,38,0.00,,---,0.08,VWS V14.00,2013-04-21 22:11:00,
2013-04-21 16:12:00,46.6,22.4,0.00,South,177,4.0,8.3,38,0.00,,---,0.08,VWS V14.00,2013-04-21 22:12:00,
2013-04-21 16:15:00,46.6,22.4,0.00,NE,49,6.3,6.3,38,0.00,,---,0.08,VWS V14.00,2013-04-21 22:15:00,
2013-04-21 16:16:00,46.6,22.4,0.00,East,92,3.6,6.3,38,0.00,,---,0.08,VWS V14.00,2013-04-21 22:16:00,
2013-04-21 16:17:00,46.6,22.4,0.00,ESE,103,2.7,4.9,38,0.00,,---,0.08,VWS V14.00,2013-04-21 22:17:00,
2013-04-21 16:20:00,46.6,22.4,0.00,ESE,113,5.8,8.7,38,0.00,,---,0.08,VWS V14.00,2013-04-21 22:20:00,
2013-04-21 16:21:00,46.6,22.4,0.00,ESE,107,5.4,5.8,38,0.00,,---,0.08,VWS V14.00,2013-04-21 22:21:00,
2013-04-21 16:22:00,46.6,22.4,0.00,East,93,4.0,4.0,38,0.00,,---,0.08,VWS V14.00,2013-04-21 22:22:00,
2013-04-21 16:25:00,46.4,22.2,0.00,SE,146,6.3,6.7,38,0.00,,---,0.08,VWS V14.00,2013-04-21 22:25:00,
2013-04-21 16:26:00,46.4,22.2,0.00,SE,130,8.3,11.4,38,0.00,,---,0.08,VWS V14.00,2013-04-21 22:26:00,
2013-04-21 16:27:00,46.4,22.2,0.00,SSW,206,10.5,10.5,38,0.00,,---,0.08,VWS V14.00,2013-04-21 22:27:00,
2013-04-21 16:30:00,46.2,22.0,0.00,ESE,110,5.4,8.1,38,0.00,,---,0.08,VWS V14.00,2013-04-21 22:30:00,
2013-04-21 16:31:00,46.2,22.0,0.00,SE,129,7.6,8.1,38,0.00,,---,0.08,VWS V14.00,2013-04-21 22:31:00,
2013-04-21 16:32:00,46.0,21.9,0.00,ENE,70,8.1,8.1,38,0.00,,---,0.08,VWS V14.00,2013-04-21 22:32:00,
2013-04-21 16:35:00,45.9,21.7,0.00,ENE,65,5.4,6.3,38,0.00,,---,0.08,VWS V14.00,2013-04-21 22:35:00,
2013-04-21 16:36:00,45.9,21.7,0.00,ENE,65,5.4,6.3,38,0.00,,---,0.08,VWS V14.00,2013-04-21 22:36:00,
2013-04-21 16:37:00,45.9,21.7,0.00,SSE,150,5.4,10.5,38,0.00,,---,0.08,VWS V14.00,2013-04-21 22:37:00,
2013-04-21 16:41:00,45.5,21.4,0.00,NE,52,3.6,4.9,38,0.00,,---,0.08,VWS V14.00,2013-04-21 22:41:00,
2013-04-21 16:42:00,45.5,21.4,0.00,ESE,115,8.1,8.1,38,0.00,,---,0.08,VWS V14.00,2013-04-21 22:42:00,
2013-04-21 16:46:00,45.3,21.2,0.00,ESE,111,8.3,10.1,38,0.00,,---,0.08,VWS V14.00,2013-04-21 22:46:00,
2013-04-21 16:47:00,45.3,21.2,0.00,East,95,6.3,9.6,38,0.00,,---,0.08,VWS V14.00,2013-04-21 22:47:00,
2013-04-21 16:51:00,45.1,21.1,0.00,SE,134,4.0,12.3,38,0.00,,---,0.08,VWS V14.00,2013-04-21 22:51:00,
2013-04-21 16:52:00,45.0,20.9,0.00,NE,42,3.6,4.0,38,0.00,,---,0.08,VWS V14.00,2013-04-21 22:52:00,
2013-04-21 16:53:00,45.0,20.9,0.00,ESE,105,5.8,9.6,38,0.00,,---,0.08,VWS V14.00,2013-04-21 22:53:00,
2013-04-21 16:56:00,44.8,20.7,0.00,SE,130,5.8,5.8,38,0.00,,---,0.08,VWS V14.00,2013-04-21 22:56:00,
2013-04-21 16:57:00,44.6,20.6,0.00,South,180,3.6,5.8,38,0.00,,---,0.08,VWS V14.00,2013-04-21 22:57:00,
2013-04-21 16:58:00,44.6,20.6,0.00,ESE,109,5.4,5.4,38,0.00,,---,0.08,VWS V14.00,2013-04-21 22:58:00,
2013-04-21 17:01:00,44.4,20.4,0.00,East,86,6.3,6.3,38,0.00,,---,0.08,VWS V14.00,2013-04-21 23:01:00,
2013-04-21 17:02:00,44.4,20.4,0.00,SE,131,3.6,6.3,38,0.00,,---,0.08,VWS V14.00,2013-04-21 23:02:00,
2013-04-21 17:03:00,44.2,20.3,0.00,East,95,0.0,3.6,38,0.00,,---,0.08,VWS V14.00,2013-04-21 23:03:00,
2013-04-21 17:06:00,44.2,20.3,0.00,ESE,122,5.8,5.8,38,0.00,,---,0.08,VWS V14.00,2013-04-21 23:06:00,
2013-04-21 17:07:00,44.1,20.1,0.00,SE,142,3.1,5.8,38,0.00,,---,0.08,VWS V14.00,2013-04-21 23:07:00,
2013-04-21 17:08:00,44.1,20.1,0.00,East,91,5.8,5.8,38,0.00,,---,0.08,VWS V14.00,2013-04-21 23:08:00,
2013-04-21 17:11:00,44.1,20.1,0.00,East,79,4.0,4.0,38,0.00,,---,0.08,VWS V14.00,2013-04-21 23:11:00,
2013-04-21 17:12:00,44.1,20.1,0.00,ENE,70,4.9,5.8,38,0.00,,---,0.08,VWS V14.00,2013-04-21 23:12:00,
2013-04-21 17:13:00,44.1,20.1,0.00,SE,126,7.2,7.2,38,0.00,,---,0.08,VWS V14.00,2013-04-21 23:13:00,
2013-04-21 17:16:00,43.9,19.9,0.00,ESE,121,5.8,11.9,38,0.00,,---,0.08,VWS V14.00,2013-04-21 23:16:00,
2013-04-21 17:17:00,43.9,19.9,0.00,ESE,114,8.7,8.7,38,0.00,,---,0.08,VWS V14.00,2013-04-21 23:17:00,
2013-04-21 17:18:00,43.9,19.9,0.00,East,93,6.7,8.7,38,0.00,,---,0.08,VWS V14.00,2013-04-21 23:18:00,
2013-04-21 17:21:00,43.7,19.8,0.00,ESE,108,6.3,8.1,38,0.00,,---,0.08,VWS V14.00,2013-04-21 23:21:00,
2013-04-21 17:22:00,43.7,19.8,0.00,SE,124,5.4,5.4,38,0.00,,---,0.08,VWS V14.00,2013-04-21 23:22:00,
2013-04-21 17:23:00,43.7,19.8,0.00,ESE,122,4.9,5.4,38,0.00,,---,0.08,VWS V14.00,2013-04-21 23:23:00,
2013-04-21 17:26:00,43.7,19.8,0.00,East,83,5.4,8.3,38,0.00,,---,0.08,VWS V14.00,2013-04-21 23:26:00,
2013-04-21 17:27:00,43.7,19.8,0.00,ESE,113,8.3,8.3,38,0.00,,---,0.08,VWS V14.00,2013-04-21 23:27:00,
2013-04-21 17:28:00,43.7,19.8,0.00,ESE,111,4.0,8.3,38,0.00,,---,0.08,VWS V14.00,2013-04-21 23:28:00,
2013-04-21 17:31:00,43.5,19.6,0.00,ESE,111,8.1,8.7,38,0.00,,---,0.08,VWS V14.00,2013-04-21 23:31:00,
2013-04-21 17:32:00,43.5,19.6,0.00,SE,138,5.8,8.3,38,0.00,,---,0.08,VWS V14.00,2013-04-21 23:32:00,
2013-04-21 17:33:00,43.5,19.6,0.00,East,84,6.3,8.3,38,0.00,,---,0.08,VWS V14.00,2013-04-21 23:33:00,
2013-04-21 17:37:00,43.3,19.5,0.00,ENE,64,4.0,7.2,38,0.00,,---,0.08,VWS V14.00,2013-04-21 23:37:00,
2013-04-21 17:38:00,43.3,19.5,0.00,ESE,104,5.4,5.4,38,0.00,,---,0.08,VWS V14.00,2013-04-21 23:38:00,
2013-04-21 17:42:00,43.3,19.5,0.00,East,88,3.6,6.3,38,0.00,,---,0.08,VWS V14.00,2013-04-21 23:42:00,
2013-04-21 17:43:00,43.2,19.3,0.00,East,86,3.1,4.9,38,0.00,,---,0.08,VWS V14.00,2013-04-21 23:43:00,
2013-04-21 17:47:00,43.2,19.3,0.00,East,92,3.6,5.8,38,0.00,,---,0.08,VWS V14.00,2013-04-21 23:47:00,
2013-04-21 17:48:00,43.2,19.3,0.00,SSW,195,4.0,6.3,38,0.00,,---,0.08,VWS V14.00,2013-04-21 23:48:00,
2013-04-21 17:53:00,43.0,19.1,0.00,SSE,150,6.7,12.3,38,0.00,,---,0.08,VWS V14.00,2013-04-21 23:53:00,
2013-04-21 17:54:00,43.0,19.1,0.00,SE,144,6.3,8.3,38,0.00,,---,0.08,VWS V14.00,2013-04-21 23:54:00,
2013-04-21 17:57:00,42.8,19.0,0.00,ESE,116,4.0,4.0,38,0.00,,---,0.08,VWS V14.00,2013-04-21 23:57:00,
2013-04-21 17:58:00,42.8,19.0,0.00,East,91,4.9,8.1,38,0.00,,---,0.08,VWS V14.00,2013-04-21 23:58:00,
2013-04-21 17:59:00,42.8,19.0,0.00,ESE,107,8.1,8.1,38,0.00,,---,0.08,VWS V14.00,2013-04-21 23:59:00,
2013-04-21 18:03:00,42.6,18.8,0.00,ESE,119,4.0,8.1,38,0.00,,---,0.08,VWS V14.00,2013-04-22 00:03:00,
2013-04-21 18:04:00,42.6,18.8,0.00,ESE,112,4.0,4.0,38,0.00,,---,0.08,VWS V14.00,2013-04-22 00:04:00,
2013-04-21 18:08:00,42.4,18.6,0.00,East,93,4.9,4.9,38,0.00,,---,0.08,VWS V14.00,2013-04-22 00:08:00,
2013-04-21 18:09:00,42.4,18.6,0.00,SE,126,5.4,9.6,38,0.00,,---,0.08,VWS V14.00,2013-04-22 00:09:00,
2013-04-21 18:13:00,42.3,18.5,0.00,SE,133,5.8,5.8,38,0.00,,---,0.08,VWS V14.00,2013-04-22 00:13:00,
2013-04-21 18:14:00,42.3,18.5,0.00,SE,127,2.7,6.3,38,0.00,,---,0.08,VWS V14.00,2013-04-22 00:14:00,
2013-04-21 18:18:00,42.1,18.3,0.00,SE,142,5.4,5.4,38,0.00,,---,0.08,VWS V14.00,2013-04-22 00:18:00,
2013-04-21 18:19:00,42.1,18.3,0.00,SSW,212,4.0,4.9,38,0.00,,---,0.08,VWS V14.00,2013-04-22 00:19:00,
2013-04-21 18:23:00,41.9,18.2,0.00,ESE,105,3.6,3.6,38,0.00,,---,0.08,VWS V14.00,2013-04-22 00:23:00,
2013-04-21 18:24:00,41.9,18.2,0.00,SE,142,5.8,5.8,38,0.00,,---,0.08,VWS V14.00,2013-04-22 00:24:00,
2013-04-21 18:28:00,41.7,18.0,0.00,SSW,213,4.0,5.4,38,0.00,,---,0.08,VWS V14.00,2013-04-22 00:28:00,
2013-04-21 18:29:00,41.7,18.0,0.00,SE,140,3.1,5.4,38,0.00,,---,0.08,VWS V14.00,2013-04-22 00:29:00,
2013-04-21 18:30:00,41.7,18.0,0.00,ESE,104,3.1,5.4,38,0.00,,---,0.08,VWS V14.00,2013-04-22 00:30:00,
2013-04-21 18:33:00,41.5,17.8,0.00,SSE,148,3.1,8.3,38,0.00,,---,0.08,VWS V14.00,2013-04-22 00:33:00,
2013-04-21 18:34:00,41.5,17.8,0.00,ESE,119,3.1,3.1,38,0.00,,---,0.08,VWS V14.00,2013-04-22 00:34:00,
2013-04-21 18:35:00,41.5,17.2,0.00,SSE,149,4.0,4.0,37,0.00,,---,0.08,VWS V14.00,2013-04-22 00:35:00,
2013-04-21 18:38:00,41.4,17.7,0.00,East,90,8.1,8.1,38,0.00,,---,0.08,VWS V14.00,2013-04-22 00:38:00,
2013-04-21 18:39:00,41.4,17.7,0.00,NE,50,3.1,6.3,38,0.00,,---,0.08,VWS V14.00,2013-04-22 00:39:00,
2013-04-21 18:40:00,41.2,17.5,0.00,SE,142,2.7,6.3,38,0.00,,---,0.08,VWS V14.00,2013-04-22 00:40:00,
2013-04-21 18:44:00,41.2,17.5,0.00,SE,146,4.9,4.9,38,0.00,,---,0.08,VWS V14.00,2013-04-22 00:44:00,
2013-04-21 18:45:00,41.2,17.5,0.00,ESE,109,4.9,4.9,38,0.00,,---,0.08,VWS V14.00,2013-04-22 00:45:00,
2013-04-21 18:49:00,41.0,16.7,0.00,SE,127,0.0,3.1,37,0.00,,---,0.08,VWS V14.00,2013-04-22 00:49:00,
2013-04-21 18:50:00,41.0,16.7,0.00,SE,126,4.0,4.9,37,0.00,,---,0.08,VWS V14.00,2013-04-22 00:50:00,
2013-04-21 18:51:00,41.0,16.7,0.00,SE,135,5.8,5.8,37,0.00,,---,0.08,VWS V14.00,2013-04-22 00:51:00,
2013-04-21 18:54:00,40.8,17.2,0.00,ESE,104,4.9,4.9,38,0.00,,---,0.08,VWS V14.00,2013-04-22 00:54:00,
2013-04-21 18:55:00,40.8,17.2,0.00,East,88,4.0,5.8,38,0.00,,---,0.08,VWS V14.00,2013-04-22 00:55:00,
2013-04-21 18:56:00,40.8,17.2,0.00,ESE,115,2.7,5.8,38,0.00,,---,0.08,VWS V14.00,2013-04-22 00:56:00,
2013-04-21 18:59:00,40.6,17.0,0.00,ESE,106,3.1,3.1,38,0.00,,---,0.08,VWS V14.00,2013-04-22 00:59:00,
2013-04-21 19:00:00,40.6,17.0,0.00,ESE,106,0.0,3.1,38,0.00,,---,0.08,VWS V14.00,2013-04-22 01:00:00,
2013-04-21 19:01:00,40.6,17.0,0.00,East,89,3.6,3.6,38,0.00,,---,0.08,VWS V14.00,2013-04-22 01:01:00,
2013-04-21 19:04:00,40.6,17.0,0.00,SE,134,0.0,2.2,38,0.00,,---,0.08,VWS V14.00,2013-04-22 01:04:00,
2013-04-21 19:05:00,40.5,16.9,0.00,SE,134,0.0,0.0,38,0.00,,---,0.08,VWS V14.00,2013-04-22 01:05:00,
2013-04-21 19:06:00,40.5,16.9,0.00,SE,134,0.0,0.0,38,0.00,,---,0.08,VWS V14.00,2013-04-22 01:06:00,
2013-04-21 19:09:00,40.5,16.9,0.00,SE,134,0.0,0.0,38,0.00,,---,0.08,VWS V14.00,2013-04-22 01:09:00,
2013-04-21 19:10:00,40.5,17.5,0.00,SE,134,0.0,0.0,39,0.00,,---,0.08,VWS V14.00,2013-04-22 01:10:00,
2013-04-21 19:11:00,40.5,16.9,0.00,SW,227,0.0,0.0,38,0.00,,---,0.08,VWS V14.00,2013-04-22 01:11:00,
2013-04-21 19:14:00,40.3,16.7,0.00,SW,232,0.0,0.0,38,0.00,,---,0.08,VWS V14.00,2013-04-22 01:14:00,
2013-04-21 19:15:00,40.3,16.7,0.00,SW,215,0.0,0.0,38,0.00,,---,0.08,VWS V14.00,2013-04-22 01:15:00,
2013-04-21 19:17:00,40.3,16.7,0.00,SSW,209,0.0,0.0,38,0.00,,---,0.08,VWS V14.00,2013-04-22 01:17:00,
2013-04-21 19:20:00,40.1,16.5,0.00,SSW,193,0.0,0.0,38,0.00,,---,0.08,VWS V14.00,2013-04-22 01:20:00,
2013-04-21 19:22:00,39.9,16.4,0.00,WSW,241,0.0,2.7,38,0.00,,---,0.08,VWS V14.00,2013-04-22 01:22:00,
2013-04-21 19:25:00,39.9,16.4,0.00,SE,141,0.0,0.0,38,0.00,,---,0.08,VWS V14.00,2013-04-22 01:25:00,
2013-04-21 19:26:00,39.9,16.4,0.00,SSE,153,0.0,0.0,38,0.00,,---,0.08,VWS V14.00,2013-04-22 01:26:00,
2013-04-21 19:27:00,39.7,16.2,0.00,WSW,250,0.0,0.0,38,0.00,,---,0.08,VWS V14.00,2013-04-22 01:27:00,
2013-04-21 19:30:00,39.6,16.1,0.00,NE,44,0.0,0.0,38,0.00,,---,0.08,VWS V14.00,2013-04-22 01:30:00,
2013-04-21 19:31:00,39.6,16.1,0.00,NE,43,0.0,0.0,38,0.00,,---,0.08,VWS V14.00,2013-04-22 01:31:00,
2013-04-21 19:32:00,39.6,16.1,0.00,NNE,32,0.0,0.0,38,0.00,,---,0.08,VWS V14.00,2013-04-22 01:32:00,
2013-04-21 19:35:00,39.4,15.9,0.00,North,1,0.0,0.0,38,0.00,,---,0.08,VWS V14.00,2013-04-22 01:35:00,
2013-04-21 19:36:00,39.4,15.9,0.00,North,1,0.0,0.0,38,0.00,,---,0.08,VWS V14.00,2013-04-22 01:36:00,
2013-04-21 19:37:00,39.2,15.7,0.00,North,1,2.7,2.7,38,0.00,,---,0.08,VWS V14.00,2013-04-22 01:37:00,
2013-04-21 19:40:00,39.2,15.7,0.00,NW,310,0.0,0.0,38,0.00,,---,0.08,VWS V14.00,2013-04-22 01:40:00,
2013-04-21 19:41:00,39.0,16.2,0.00,NW,310,0.0,0.0,39,0.00,,---,0.08,VWS V14.00,2013-04-22 01:41:00,
2013-04-21 19:42:00,39.0,16.2,0.00,NW,304,0.0,0.0,39,0.00,,---,0.08,VWS V14.00,2013-04-22 01:42:00,
2013-04-21 19:45:00,38.8,16.0,0.00,WSW,242,0.0,0.0,39,0.00,,---,0.08,VWS V14.00,2013-04-22 01:45:00,
2013-04-21 19:46:00,38.8,16.0,0.00,WSW,242,0.0,0.0,39,0.00,,---,0.08,VWS V14.00,2013-04-22 01:46:00,
2013-04-21 19:47:00,38.7,15.9,0.00,South,177,3.1,3.1,39,0.00,,---,0.08,VWS V14.00,2013-04-22 01:47:00,
2013-04-21 19:50:00,38.7,15.9,0.00,South,178,0.0,0.0,39,0.00,,---,0.08,VWS V14.00,2013-04-22 01:50:00,
2013-04-21 19:51:00,38.7,15.9,0.00,South,178,0.0,0.0,39,0.00,,---,0.08,VWS V14.00,2013-04-22 01:51:00,
2013-04-21 19:52:00,38.5,15.7,0.00,SW,229,0.0,0.0,39,0.00,,---,0.08,VWS V14.00,2013-04-22 01:52:00,
2013-04-21 19:56:00,38.3,15.5,0.00,SW,229,0.0,0.0,39,0.00,,---,0.08,VWS V14.00,2013-04-22 01:56:00,
2013-04-21 19:57:00,38.1,15.4,0.00,WNW,287,3.1,3.1,39,0.00,,---,0.08,VWS V14.00,2013-04-22 01:57:00,
2013-04-21 20:01:00,38.1,15.4,0.00,WNW,303,0.0,0.0,39,0.00,,---,0.08,VWS V14.00,2013-04-22 02:01:00,
2013-04-21 20:03:00,37.9,15.2,0.00,WNW,303,0.0,0.0,39,0.00,,---,0.08,VWS V14.00,2013-04-22 02:03:00,
2013-04-21 20:06:00,37.8,15.0,0.00,East,95,3.6,3.6,39,0.00,,---,0.08,VWS V14.00,2013-04-22 02:06:00,
2013-04-21 20:07:00,37.8,15.0,0.00,East,98,3.1,3.6,39,0.00,,---,0.08,VWS V14.00,2013-04-22 02:07:00,
2013-04-21 20:08:00,37.8,15.0,0.00,East,98,0.0,0.0,39,0.00,,---,0.08,VWS V14.00,2013-04-22 02:08:00,
2013-04-21 20:11:00,37.6,14.9,0.00,East,96,0.0,0.0,39,0.00,,---,0.08,VWS V14.00,2013-04-22 02:11:00,
2013-04-21 20:12:00,37.6,14.9,0.00,East,96,0.0,0.0,39,0.00,,---,0.08,VWS V14.00,2013-04-22 02:12:00,
2013-04-21 20:13:00,37.4,14.7,0.00,West,268,2.7,2.7,39,0.00,,---,0.08,VWS V14.00,2013-04-22 02:13:00,
2013-04-21 20:16:00,37.4,14.7,0.00,West,273,0.0,0.0,39,0.00,,---,0.08,VWS V14.00,2013-04-22 02:16:00,
2013-04-21 20:17:00,37.4,14.7,0.00,West,274,0.0,0.0,39,0.00,,---,0.08,VWS V14.00,2013-04-22 02:17:00,
2013-04-21 20:18:00,37.2,15.1,0.00,West,274,0.0,0.0,40,0.00,,---,0.08,VWS V14.00,2013-04-22 02:18:00,
2013-04-21 20:21:00,37.0,15.0,0.00,West,273,0.0,0.0,40,0.00,,---,0.08,VWS V14.00,2013-04-22 02:21:00,
2013-04-21 20:22:00,37.0,15.0,0.00,West,273,0.0,0.0,40,0.00,,---,0.08,VWS V14.00,2013-04-22 02:22:00,
2013-04-21 20:23:00,37.0,15.0,0.00,West,273,0.0,0.0,40,0.00,,---,0.08,VWS V14.00,2013-04-22 02:23:00,
2013-04-21 20:26:00,36.9,14.8,0.00,West,273,0.0,0.0,40,0.00,,---,0.08,VWS V14.00,2013-04-22 02:26:00,
2013-04-21 20:27:00,36.9,14.8,0.00,West,273,0.0,0.0,40,0.00,,---,0.08,VWS V14.00,2013-04-22 02:27:00,
2013-04-21 20:28:00,36.7,14.6,0.00,West,271,0.0,0.0,40,0.00,,---,0.08,VWS V14.00,2013-04-22 02:28:00,
2013-04-21 20:31:00,36.7,14.6,0.00,West,271,0.0,0.0,40,0.00,,---,0.08,VWS V14.00,2013-04-22 02:31:00,
2013-04-21 20:32:00,36.5,14.5,0.00,West,271,0.0,0.0,40,0.00,,---,0.08,VWS V14.00,2013-04-22 02:32:00,
2013-04-21 20:33:00,36.5,14.5,0.00,West,271,0.0,0.0,40,0.00,,---,0.08,VWS V14.00,2013-04-22 02:33:00,
2013-04-21 20:37:00,36.3,14.3,0.00,West,271,0.0,0.0,40,0.00,,---,0.08,VWS V14.00,2013-04-22 02:37:00,
2013-04-21 20:38:00,36.3,14.3,0.00,West,271,0.0,0.0,40,0.00,,---,0.08,VWS V14.00,2013-04-22 02:38:00,
2013-04-21 20:39:00,36.1,14.2,0.00,West,271,0.0,0.0,40,0.00,,---,0.08,VWS V14.00,2013-04-22 02:39:00,
2013-04-21 20:42:00,36.1,14.2,0.00,West,271,0.0,0.0,40,0.00,,---,0.08,VWS V14.00,2013-04-22 02:42:00,
2013-04-21 20:43:00,36.0,14.0,0.00,West,271,0.0,0.0,40,0.00,,---,0.08,VWS V14.00,2013-04-22 02:43:00,
2013-04-21 20:44:00,36.0,14.0,0.00,West,271,0.0,0.0,40,0.00,,---,0.08,VWS V14.00,2013-04-22 02:44:00,
2013-04-21 20:47:00,35.8,13.8,0.00,West,271,0.0,0.0,40,0.00,,---,0.08,VWS V14.00,2013-04-22 02:47:00,
2013-04-21 20:48:00,35.8,13.8,0.00,West,271,0.0,0.0,40,0.00,,---,0.08,VWS V14.00,2013-04-22 02:48:00,
2013-04-21 20:49:00,35.8,13.8,0.00,West,271,0.0,0.0,40,0.00,,---,0.08,VWS V14.00,2013-04-22 02:49:00,
2013-04-21 20:52:00,35.6,13.7,0.00,West,272,0.0,0.0,40,0.00,,---,0.08,VWS V14.00,2013-04-22 02:52:00,
2013-04-21 20:53:00,35.4,14.1,0.00,West,272,0.0,0.0,41,0.00,,---,0.08,VWS V14.00,2013-04-22 02:53:00,
2013-04-21 20:54:00,35.4,14.1,0.00,West,272,0.0,0.0,41,0.00,,---,0.08,VWS V14.00,2013-04-22 02:54:00,
2013-04-21 20:57:00,35.2,13.9,0.00,West,272,0.0,0.0,41,0.00,,---,0.08,VWS V14.00,2013-04-22 02:57:00,
2013-04-21 20:58:00,35.2,13.9,0.00,West,272,0.0,0.0,41,0.00,,---,0.08,VWS V14.00,2013-04-22 02:58:00,
2013-04-21 20:59:00,35.2,13.9,0.00,West,272,0.0,0.0,41,0.00,,---,0.08,VWS V14.00,2013-04-22 02:59:00,
2013-04-21 21:02:00,35.1,13.8,0.00,West,272,0.0,0.0,41,0.00,,---,0.08,VWS V14.00,2013-04-22 03:02:00,
2013-04-21 21:03:00,35.1,13.8,0.00,West,272,0.0,0.0,41,0.00,,---,0.08,VWS V14.00,2013-04-22 03:03:00,
2013-04-21 21:04:00,35.1,13.8,0.00,West,272,0.0,0.0,41,0.00,,---,0.08,VWS V14.00,2013-04-22 03:04:00,
2013-04-21 21:07:00,34.9,13.6,0.00,West,272,0.0,0.0,41,0.00,,---,0.08,VWS V14.00,2013-04-22 03:07:00,
2013-04-21 21:09:00,34.9,13.6,0.00,West,272,0.0,0.0,41,0.00,,---,0.08,VWS V14.00,2013-04-22 03:09:00,
2013-04-21 21:12:00,34.5,13.3,0.00,West,273,0.0,0.0,41,0.00,,---,0.08,VWS V14.00,2013-04-22 03:12:00,
2013-04-21 21:14:00,34.5,13.3,0.00,West,273,0.0,0.0,41,0.00,,---,0.08,VWS V14.00,2013-04-22 03:14:00,
2013-04-21 21:17:00,34.3,13.1,0.00,West,273,0.0,0.0,41,0.00,,---,0.08,VWS V14.00,2013-04-22 03:17:00,
2013-04-21 21:19:00,34.3,13.1,0.00,West,273,0.0,0.0,41,0.00,,---,0.08,VWS V14.00,2013-04-22 03:19:00,
2013-04-21 21:22:00,34.2,12.9,0.00,West,274,0.0,0.0,41,0.00,,---,0.08,VWS V14.00,2013-04-22 03:22:00,
2013-04-21 21:24:00,34.0,12.8,0.00,West,274,0.0,0.0,41,0.00,,---,0.08,VWS V14.00,2013-04-22 03:24:00,
2013-04-21 21:25:00,34.0,12.8,0.00,West,273,0.0,0.0,41,0.00,,---,0.08,VWS V14.00,2013-04-22 03:25:00,
2013-04-21 21:27:00,34.0,12.8,0.00,West,273,0.0,0.0,41,0.00,,---,0.08,VWS V14.00,2013-04-22 03:27:00,
2013-04-21 21:29:00,33.8,13.1,0.00,West,273,0.0,0.0,42,0.00,,---,0.08,VWS V14.00,2013-04-22 03:29:00,
2013-04-21 21:30:00,33.8,13.1,0.00,West,273,0.0,0.0,42,0.00,,---,0.08,VWS V14.00,2013-04-22 03:30:00,
2013-04-21 21:32:00,33.8,13.1,0.00,West,273,0.0,0.0,42,0.00,,---,0.08,VWS V14.00,2013-04-22 03:32:00,
2013-04-21 21:34:00,33.6,13.0,0.00,West,274,0.0,0.0,42,0.00,,---,0.08,VWS V14.00,2013-04-22 03:34:00,
2013-04-21 21:35:00,33.6,13.0,0.00,West,264,0.0,0.0,42,0.00,,---,0.08,VWS V14.00,2013-04-22 03:35:00,
2013-04-21 21:37:00,33.6,13.0,0.00,West,274,0.0,0.0,42,0.00,,---,0.08,VWS V14.00,2013-04-22 03:37:00,
2013-04-21 21:39:00,33.4,12.8,0.00,West,273,0.0,0.0,42,0.00,,---,0.08,VWS V14.00,2013-04-22 03:39:00,
2013-04-21 21:40:00,33.4,12.8,0.00,West,273,0.0,0.0,42,0.00,,---,0.08,VWS V14.00,2013-04-22 03:40:00,
2013-04-21 21:42:00,33.3,12.7,0.00,WSW,237,0.0,0.0,42,0.00,,---,0.08,VWS V14.00,2013-04-22 03:42:00,
2013-04-21 21:44:00,33.3,13.2,0.00,South,185,0.0,0.0,43,0.00,,---,0.08,VWS V14.00,2013-04-22 03:44:00,
2013-04-21 21:46:00,33.3,13.2,0.00,SSW,212,0.0,0.0,43,0.00,,---,0.08,VWS V14.00,2013-04-22 03:46:00,
2013-04-21 21:47:00,33.1,13.0,0.00,SW,218,0.0,0.0,43,0.00,,---,0.08,VWS V14.00,2013-04-22 03:47:00,
2013-04-21 21:49:00,33.1,13.0,0.00,SW,217,0.0,0.0,43,0.00,,---,0.08,VWS V14.00,2013-04-22 03:49:00,
2013-04-21 21:50:00,33.1,13.0,0.00,SW,216,0.0,0.0,43,0.00,,---,0.08,VWS V14.00,2013-04-22 03:50:00,
2013-04-21 21:51:00,33.1,13.0,0.00,SW,216,0.0,0.0,43,0.00,,---,0.08,VWS V14.00,2013-04-22 03:51:00,
2013-04-21 21:53:00,32.9,12.9,0.00,SW,217,0.0,0.0,43,0.00,,---,0.08,VWS V14.00,2013-04-22 03:53:00,
2013-04-21 21:55:00,32.9,12.9,0.00,SW,216,0.0,0.0,43,0.00,,---,0.08,VWS V14.00,2013-04-22 03:55:00,
2013-04-21 21:56:00,32.7,12.7,0.00,SW,216,0.0,0.0,43,0.00,,---,0.08,VWS V14.00,2013-04-22 03:56:00,
2013-04-21 21:58:00,32.7,12.7,0.00,SSW,213,0.0,0.0,43,0.00,,---,0.08,VWS V14.00,2013-04-22 03:58:00,
2013-04-21 22:00:00,32.7,12.7,0.00,SW,217,0.0,0.0,43,0.00,,---,0.08,VWS V14.00,2013-04-22 04:00:00,
2013-04-21 22:01:00,32.7,12.7,0.00,SW,217,0.0,0.0,43,0.00,,---,0.08,VWS V14.00,2013-04-22 04:01:00,
2013-04-21 22:06:00,32.5,12.5,0.00,SW,217,0.0,0.0,43,0.00,,---,0.08,VWS V14.00,2013-04-22 04:06:00,
2013-04-21 22:11:00,32.5,12.5,0.00,SSE,162,0.0,0.0,43,0.00,,---,0.08,VWS V14.00,2013-04-22 04:11:00,
2013-04-21 22:16:00,32.4,12.4,0.00,SSE,162,0.0,0.0,43,0.00,,---,0.08,VWS V14.00,2013-04-22 04:16:00,
2013-04-21 22:21:00,32.2,12.2,0.00,South,187,0.0,0.0,43,0.00,,---,0.08,VWS V14.00,2013-04-22 04:21:00,
2013-04-21 22:22:00,32.2,12.2,0.00,South,187,0.0,0.0,43,0.00,,---,0.08,VWS V14.00,2013-04-22 04:22:00,
2013-04-21 22:26:00,32.2,12.2,0.00,South,187,0.0,0.0,43,0.00,,---,0.08,VWS V14.00,2013-04-22 04:26:00,
2013-04-21 22:27:00,32.0,12.1,0.00,South,187,0.0,0.0,43,0.00,,---,0.08,VWS V14.00,2013-04-22 04:27:00,
2013-04-21 22:31:00,32.0,12.6,0.00,South,187,0.0,0.0,44,0.00,,---,0.08,VWS V14.00,2013-04-22 04:31:00,
2013-04-21 22:32:00,32.0,12.6,0.00,South,187,0.0,0.0,44,0.00,,---,0.08,VWS V14.00,2013-04-22 04:32:00,
2013-04-21 22:36:00,31.8,12.4,0.00,SSW,204,0.0,0.0,44,0.00,,---,0.08,VWS V14.00,2013-04-22 04:36:00,
2013-04-21 22:37:00,31.8,12.4,0.00,SSW,204,0.0,0.0,44,0.00,,---,0.08,VWS V14.00,2013-04-22 04:37:00,
2013-04-21 22:41:00,31.6,12.2,0.00,SSW,204,0.0,0.0,44,0.00,,---,0.08,VWS V14.00,2013-04-22 04:41:00,
2013-04-21 22:42:00,31.6,12.2,0.00,SSW,204,0.0,0.0,44,0.00,,---,0.08,VWS V14.00,2013-04-22 04:42:00,
2013-04-21 22:46:00,31.6,12.2,0.00,SSW,205,0.0,0.0,44,0.00,,---,0.08,VWS V14.00,2013-04-22 04:46:00,
2013-04-21 22:47:00,31.6,12.2,0.00,SSW,205,0.0,0.0,44,0.00,,---,0.08,VWS V14.00,2013-04-22 04:47:00,
2013-04-21 22:51:00,31.5,12.1,0.00,SSW,206,0.0,0.0,44,0.00,,---,0.08,VWS V14.00,2013-04-22 04:51:00,
2013-04-21 22:52:00,31.5,12.1,0.00,SSW,206,0.0,0.0,44,0.00,,---,0.08,VWS V14.00,2013-04-22 04:52:00,
2013-04-21 22:57:00,31.3,11.9,0.00,SSW,205,0.0,0.0,44,0.00,,---,0.08,VWS V14.00,2013-04-22 04:57:00,
2013-04-21 22:58:00,31.3,11.9,0.00,SSW,206,0.0,0.0,44,0.00,,---,0.08,VWS V14.00,2013-04-22 04:58:00,
2013-04-21 23:02:00,31.3,12.4,0.00,SSW,206,0.0,0.0,45,0.00,,---,0.08,VWS V14.00,2013-04-22 05:02:00,
2013-04-21 23:03:00,31.3,12.4,0.00,SSW,205,0.0,0.0,45,0.00,,---,0.08,VWS V14.00,2013-04-22 05:03:00,
2013-04-21 23:07:00,31.1,12.2,0.00,South,180,0.0,0.0,45,0.00,,---,0.08,VWS V14.00,2013-04-22 05:07:00,
2013-04-21 23:08:00,31.1,12.2,0.00,East,97,4.9,4.9,45,0.00,,---,0.08,VWS V14.00,2013-04-22 05:08:00,
2013-04-21 23:12:00,31.1,12.2,0.00,East,91,2.7,2.7,45,0.00,,---,0.08,VWS V14.00,2013-04-22 05:12:00,
2013-04-21 23:13:00,31.1,12.8,0.00,ESE,120,3.1,4.0,46,0.00,,---,0.08,VWS V14.00,2013-04-22 05:13:00,
2013-04-21 23:17:00,31.1,12.8,0.00,ESE,111,5.4,5.4,46,0.00,,---,0.08,VWS V14.00,2013-04-22 05:17:00,
2013-04-21 23:18:00,31.1,12.8,0.00,ESE,115,4.0,4.0,46,0.00,,---,0.08,VWS V14.00,2013-04-22 05:18:00,
2013-04-21 23:22:00,31.1,13.2,0.00,ESE,110,5.8,5.8,47,0.00,,---,0.08,VWS V14.00,2013-04-22 05:22:00,
2013-04-21 23:23:00,31.1,13.2,0.00,East,93,3.6,5.8,47,0.00,,---,0.08,VWS V14.00,2013-04-22 05:23:00,
2013-04-21 23:24:00,31.1,13.2,0.00,East,93,2.7,3.6,47,0.00,,---,0.08,VWS V14.00,2013-04-22 05:24:00,
2013-04-21 23:27:00,31.3,13.4,0.00,ESE,115,3.1,3.6,47,0.00,,---,0.08,VWS V14.00,2013-04-22 05:27:00,
2013-04-21 23:28:00,31.3,13.4,0.00,ESE,123,4.0,4.0,47,0.00,,---,0.08,VWS V14.00,2013-04-22 05:28:00,
2013-04-21 23:29:00,31.3,13.9,0.00,SE,130,3.1,3.1,48,0.00,,---,0.08,VWS V14.00,2013-04-22 05:29:00,
2013-04-21 23:33:00,31.3,13.9,0.00,SE,127,2.7,5.4,48,0.00,,---,0.08,VWS V14.00,2013-04-22 05:33:00,
2013-04-21 23:34:00,31.3,13.9,0.00,ESE,117,5.4,5.4,48,0.00,,---,0.08,VWS V14.00,2013-04-22 05:34:00,
2013-04-21 23:38:00,31.5,14.1,0.00,ESE,103,3.6,4.0,48,0.00,,---,0.08,VWS V14.00,2013-04-22 05:38:00,
2013-04-21 23:39:00,31.5,14.1,0.00,ESE,112,4.9,5.8,48,0.00,,---,0.08,VWS V14.00,2013-04-22 05:39:00,
2013-04-21 23:43:00,31.5,14.5,0.00,ESE,118,3.6,5.8,49,0.00,,---,0.08,VWS V14.00,2013-04-22 05:43:00,
2013-04-21 23:44:00,31.5,14.5,0.00,ESE,119,4.0,10.5,49,0.00,,---,0.08,VWS V14.00,2013-04-22 05:44:00,
2013-04-21 23:48:00,31.5,14.5,0.00,ESE,111,4.0,6.3,49,0.00,,---,0.08,VWS V14.00,2013-04-22 05:48:00,
2013-04-21 23:49:00,31.5,14.5,0.00,SE,125,3.1,8.3,49,0.00,,---,0.08,VWS V14.00,2013-04-22 05:49:00,
2013-04-21 23:53:00,31.6,14.7,0.00,SE,126,4.9,4.9,49,0.00,,---,0.08,VWS V14.00,2013-04-22 05:53:00,
2013-04-21 23:54:00,31.6,14.7,0.00,ESE,116,4.9,5.8,49,0.00,,---,0.00,VWS V14.00,2013-04-22 05:54:00,
2013-04-21 23:55:00,31.6,14.7,0.00,East,98,3.1,4.9,49,0.00,,---,0.00,VWS V14.00,2013-04-22 05:55:00,
2013-04-21 23:58:00,31.6,14.7,0.00,East,93,3.6,7.6,49,0.00,,---,0.00,VWS V14.00,2013-04-22 05:58:00,
2013-04-21 23:59:00,31.6,14.7,0.00,East,99,3.1,4.0,49,0.00,,---,0.00,VWS V14.00,2013-04-22 05:59:00,